Back to Top

Language: 

My Weather Underground Personal Weather Station Historical Data with Graphs...

Delerius Weather Station Historical Data
Daily Summary for January 18, 2017 Units:  Both    English   Metric
« Previous Day
Next Day »
Daily Weekly Monthly Yearly Custom
  High: Low: Average:
Temperature: 47.4 °F /  8.6 °C 44.1 °F /  6.7 °C 45.3 °F /  7.4 °C
Dew Point: 45.3 °F /  7.4 °C 42.8 °F /  6 °C 43.8 °F /  6.6 °C
Humidity: 98 % 88 % 94 %
Wind Speed: 7.0 mph /  11.3 km/h - 1.7 mph /  2.7 km/h
Wind Gust: 9.0 mph /  14.5 km/h - -
Wind:- - WNW
Pressure: 30.64 in /  1037.5 hPa 30.56 in /  1034.8 hPa -
Precipitation: 0.00 in /  0 mm    
Historical Graphs
 
 
Tabular Data for January 18, 2017
Time Temperature Dew Point Pressure Wind Wind Speed Wind Gust Humidity Rainfall Rate (Hourly) solar Conditions
00:00 44.1 °F /  6.7 °C 43.6 °F /  6.4 °C 30.57 in /  1035.1 hPa WNW 3.0 mph /  4.8 km/h 8.0 mph /  12.9 km/h 98 % 0.00 in /  0 mm 0 W/m2
00:01 44.2 °F /  6.8 °C 43.4 °F /  6.3 °C 30.56 in /  1034.8 hPa WNW 6.0 mph /  9.7 km/h -999.0 mph /  -1607.7 km/h 97 % 0.00 in /  0 mm 0 W/m2
00:05 44.2 °F /  6.8 °C 43.7 °F /  6.5 °C 30.57 in /  1035.1 hPa West 5.0 mph /  8 km/h 8.0 mph /  12.9 km/h 98 % 0.00 in /  0 mm 0 W/m2
00:06 44.2 °F /  6.8 °C 43.4 °F /  6.3 °C 30.56 in /  1034.8 hPa WNW 6.0 mph /  9.7 km/h -999.0 mph /  -1607.7 km/h 97 % 0.00 in /  0 mm 0 W/m2
00:11 44.2 °F /  6.8 °C 43.4 °F /  6.3 °C 30.56 in /  1034.8 hPa WNW 6.0 mph /  9.7 km/h -999.0 mph /  -1607.7 km/h 97 % 0.00 in /  0 mm 0 W/m2
00:15 44.2 °F /  6.8 °C 43.7 °F /  6.5 °C 30.56 in /  1034.8 hPa WNW 6.0 mph /  9.7 km/h 6.0 mph /  9.7 km/h 98 % 0.00 in /  0 mm 0 W/m2
00:16 44.2 °F /  6.8 °C 43.4 °F /  6.3 °C 30.56 in /  1034.8 hPa WNW 6.0 mph /  9.7 km/h -999.0 mph /  -1607.7 km/h 97 % 0.00 in /  0 mm 0 W/m2
00:20 44.2 °F /  6.8 °C 43.4 °F /  6.3 °C 30.56 in /  1034.8 hPa West 7.0 mph /  11.3 km/h 7.0 mph /  11.3 km/h 97 % 0.00 in /  0 mm 0 W/m2
00:21 44.2 °F /  6.8 °C 43.4 °F /  6.3 °C 30.56 in /  1034.8 hPa WNW 6.0 mph /  9.7 km/h -999.0 mph /  -1607.7 km/h 97 % 0.00 in /  0 mm 0 W/m2
00:25 44.2 °F /  6.8 °C 43.4 °F /  6.3 °C 30.56 in /  1034.8 hPa WNW 6.0 mph /  9.7 km/h 7.0 mph /  11.3 km/h 97 % 0.00 in /  0 mm 0 W/m2
00:26 44.2 °F /  6.8 °C 43.4 °F /  6.3 °C 30.56 in /  1034.8 hPa WNW 6.0 mph /  9.7 km/h -999.0 mph /  -1607.7 km/h 97 % 0.00 in /  0 mm 0 W/m2
00:30 44.2 °F /  6.8 °C 43.4 °F /  6.3 °C 30.56 in /  1034.8 hPa WNW 6.0 mph /  9.7 km/h 6.0 mph /  9.7 km/h 97 % 0.00 in /  0 mm 0 W/m2
00:31 44.2 °F /  6.8 °C 43.4 °F /  6.3 °C 30.56 in /  1034.8 hPa WNW 6.0 mph /  9.7 km/h -999.0 mph /  -1607.7 km/h 97 % 0.00 in /  0 mm 0 W/m2
00:35 44.2 °F /  6.8 °C 43.4 °F /  6.3 °C 30.57 in /  1035.1 hPa WNW 5.0 mph /  8 km/h 6.0 mph /  9.7 km/h 97 % 0.00 in /  0 mm 0 W/m2
00:36 44.2 °F /  6.8 °C 43.4 °F /  6.3 °C 30.56 in /  1034.8 hPa WNW 6.0 mph /  9.7 km/h -999.0 mph /  -1607.7 km/h 97 % 0.00 in /  0 mm 0 W/m2
00:40 44.3 °F /  6.8 °C 43.5 °F /  6.4 °C 30.57 in /  1035.1 hPa WNW 3.0 mph /  4.8 km/h 4.0 mph /  6.4 km/h 97 % 0.00 in /  0 mm 0 W/m2
00:41 44.2 °F /  6.8 °C 43.4 °F /  6.3 °C 30.57 in /  1035.1 hPa WNW 2.0 mph /  3.2 km/h -999.0 mph /  -1607.7 km/h 97 % 0.00 in /  0 mm 0 W/m2
00:45 44.2 °F /  6.8 °C 43.4 °F /  6.3 °C 30.57 in /  1035.1 hPa WNW 1.0 mph /  1.6 km/h 4.0 mph /  6.4 km/h 97 % 0.00 in /  0 mm 0 W/m2
00:46 44.2 °F /  6.8 °C 43.4 °F /  6.3 °C 30.57 in /  1035.1 hPa WNW 2.0 mph /  3.2 km/h -999.0 mph /  -1607.7 km/h 97 % 0.00 in /  0 mm 0 W/m2
00:51 44.2 °F /  6.8 °C 43.4 °F /  6.3 °C 30.57 in /  1035.1 hPa WNW 2.0 mph /  3.2 km/h -999.0 mph /  -1607.7 km/h 97 % 0.00 in /  0 mm 0 W/m2
00:55 44.2 °F /  6.8 °C 43.4 °F /  6.3 °C 30.57 in /  1035.1 hPa Calm   1.0 mph /  1.6 km/h 97 % 0.00 in /  0 mm 0 W/m2
00:56 44.2 °F /  6.8 °C 43.4 °F /  6.3 °C 30.57 in /  1035.1 hPa Calm   -999.0 mph /  -1607.7 km/h 97 % 0.00 in /  0 mm 0 W/m2
01:00 44.2 °F /  6.8 °C 43.4 °F /  6.3 °C 30.57 in /  1035.1 hPa Calm     97 % 0.00 in /  0 mm 0 W/m2
01:01 44.2 °F /  6.8 °C 43.4 °F /  6.3 °C 30.57 in /  1035.1 hPa Calm   -999.0 mph /  -1607.7 km/h 97 % 0.00 in /  0 mm 0 W/m2
01:06 44.2 °F /  6.8 °C 43.4 °F /  6.3 °C 30.57 in /  1035.1 hPa Calm   -999.0 mph /  -1607.7 km/h 97 % 0.00 in /  0 mm 0 W/m2
01:10 44.2 °F /  6.8 °C 43.4 °F /  6.3 °C 30.58 in /  1035.4 hPa Calm   6.0 mph /  9.7 km/h 97 % 0.00 in /  0 mm 0 W/m2
01:11 44.2 °F /  6.8 °C 43.4 °F /  6.3 °C 30.58 in /  1035.4 hPa Calm   -999.0 mph /  -1607.7 km/h 97 % 0.00 in /  0 mm 0 W/m2
01:15 44.2 °F /  6.8 °C 43.4 °F /  6.3 °C 30.58 in /  1035.4 hPa Calm   6.0 mph /  9.7 km/h 97 % 0.00 in /  0 mm 0 W/m2
01:16 44.2 °F /  6.8 °C 43.4 °F /  6.3 °C 30.58 in /  1035.4 hPa Calm   -999.0 mph /  -1607.7 km/h 97 % 0.00 in /  0 mm 0 W/m2
01:20 44.2 °F /  6.8 °C 43.4 °F /  6.3 °C 30.58 in /  1035.4 hPa Calm   6.0 mph /  9.7 km/h 97 % 0.00 in /  0 mm 0 W/m2
01:21 44.2 °F /  6.8 °C 43.4 °F /  6.3 °C 30.58 in /  1035.4 hPa Calm   -999.0 mph /  -1607.7 km/h 97 % 0.00 in /  0 mm 0 W/m2
01:25 44.2 °F /  6.8 °C 43.4 °F /  6.3 °C 30.58 in /  1035.4 hPa Calm   6.0 mph /  9.7 km/h 97 % 0.00 in /  0 mm 0 W/m2
01:26 44.2 °F /  6.8 °C 43.4 °F /  6.3 °C 30.58 in /  1035.4 hPa Calm   -999.0 mph /  -1607.7 km/h 97 % 0.00 in /  0 mm 0 W/m2
01:30 44.2 °F /  6.8 °C 43.4 °F /  6.3 °C 30.58 in /  1035.4 hPa Calm   6.0 mph /  9.7 km/h 97 % 0.00 in /  0 mm 0 W/m2
01:31 44.2 °F /  6.8 °C 43.4 °F /  6.3 °C 30.58 in /  1035.4 hPa Calm   -999.0 mph /  -1607.7 km/h 97 % 0.00 in /  0 mm 0 W/m2
01:35 44.2 °F /  6.8 °C 43.4 °F /  6.3 °C 30.58 in /  1035.4 hPa Calm   6.0 mph /  9.7 km/h 97 % 0.00 in /  0 mm 0 W/m2
01:36 44.2 °F /  6.8 °C 43.4 °F /  6.3 °C 30.58 in /  1035.4 hPa Calm   -999.0 mph /  -1607.7 km/h 97 % 0.00 in /  0 mm 0 W/m2
01:40 44.2 °F /  6.8 °C 43.4 °F /  6.3 °C 30.58 in /  1035.4 hPa Calm   6.0 mph /  9.7 km/h 97 % 0.00 in /  0 mm 0 W/m2
01:41 44.2 °F /  6.8 °C 43.4 °F /  6.3 °C 30.58 in /  1035.4 hPa Calm   -999.0 mph /  -1607.7 km/h 97 % 0.00 in /  0 mm 0 W/m2
01:46 44.2 °F /  6.8 °C 43.4 °F /  6.3 °C 30.58 in /  1035.4 hPa Calm   -999.0 mph /  -1607.7 km/h 97 % 0.00 in /  0 mm 0 W/m2
01:50 44.2 °F /  6.8 °C 43.4 °F /  6.3 °C 30.58 in /  1035.4 hPa WNW 1.0 mph /  1.6 km/h 1.0 mph /  1.6 km/h 97 % 0.00 in /  0 mm 0 W/m2
01:51 44.2 °F /  6.8 °C 43.4 °F /  6.3 °C 30.58 in /  1035.4 hPa Calm   -999.0 mph /  -1607.7 km/h 97 % 0.00 in /  0 mm 0 W/m2
01:55 44.2 °F /  6.8 °C 43.4 °F /  6.3 °C 30.58 in /  1035.4 hPa WNW 1.0 mph /  1.6 km/h 4.0 mph /  6.4 km/h 97 % 0.00 in /  0 mm 0 W/m2
01:56 44.2 °F /  6.8 °C 43.4 °F /  6.3 °C 30.57 in /  1035.1 hPa WNW 2.0 mph /  3.2 km/h -999.0 mph /  -1607.7 km/h 97 % 0.00 in /  0 mm 0 W/m2
02:00 44.3 °F /  6.8 °C 43.5 °F /  6.4 °C 30.57 in /  1035.1 hPa West 2.0 mph /  3.2 km/h 2.0 mph /  3.2 km/h 97 % 0.00 in /  0 mm 0 W/m2
02:01 44.2 °F /  6.8 °C 43.4 °F /  6.3 °C 30.57 in /  1035.1 hPa WNW 2.0 mph /  3.2 km/h -999.0 mph /  -1607.7 km/h 97 % 0.00 in /  0 mm 0 W/m2
02:05 44.3 °F /  6.8 °C 43.5 °F /  6.4 °C 30.58 in /  1035.4 hPa WSW 2.0 mph /  3.2 km/h 6.0 mph /  9.7 km/h 97 % 0.00 in /  0 mm 0 W/m2
02:06 44.2 °F /  6.8 °C 43.4 °F /  6.3 °C 30.57 in /  1035.1 hPa WNW 2.0 mph /  3.2 km/h -999.0 mph /  -1607.7 km/h 97 % 0.00 in /  0 mm 0 W/m2
02:10 44.3 °F /  6.8 °C 43.5 °F /  6.4 °C 30.58 in /  1035.4 hPa West 1.0 mph /  1.6 km/h 1.0 mph /  1.6 km/h 97 % 0.00 in /  0 mm 0 W/m2
02:11 44.3 °F /  6.8 °C 43.5 °F /  6.4 °C 30.58 in /  1035.4 hPa West 1.0 mph /  1.6 km/h -999.0 mph /  -1607.7 km/h 97 % 0.00 in /  0 mm 0 W/m2
02:16 44.3 °F /  6.8 °C 43.5 °F /  6.4 °C 30.58 in /  1035.4 hPa West 1.0 mph /  1.6 km/h -999.0 mph /  -1607.7 km/h 97 % 0.00 in /  0 mm 0 W/m2
02:20 44.3 °F /  6.8 °C 43.5 °F /  6.4 °C 30.58 in /  1035.4 hPa West 1.0 mph /  1.6 km/h 1.0 mph /  1.6 km/h 97 % 0.00 in /  0 mm 0 W/m2
02:21 44.3 °F /  6.8 °C 43.5 °F /  6.4 °C 30.58 in /  1035.4 hPa West 1.0 mph /  1.6 km/h -999.0 mph /  -1607.7 km/h 97 % 0.00 in /  0 mm 0 W/m2
02:25 44.3 °F /  6.8 °C 43.5 °F /  6.4 °C 30.58 in /  1035.4 hPa Calm   6.0 mph /  9.7 km/h 97 % 0.00 in /  0 mm 0 W/m2
02:26 44.3 °F /  6.8 °C 43.5 °F /  6.4 °C 30.58 in /  1035.4 hPa Calm   -999.0 mph /  -1607.7 km/h 97 % 0.00 in /  0 mm 0 W/m2
02:30 44.3 °F /  6.8 °C 43.5 °F /  6.4 °C 30.58 in /  1035.4 hPa Calm   6.0 mph /  9.7 km/h 97 % 0.00 in /  0 mm 0 W/m2
02:31 44.3 °F /  6.8 °C 43.5 °F /  6.4 °C 30.58 in /  1035.4 hPa Calm   -999.0 mph /  -1607.7 km/h 97 % 0.00 in /  0 mm 0 W/m2
02:35 44.3 °F /  6.8 °C 43.5 °F /  6.4 °C 30.58 in /  1035.4 hPa Calm   6.0 mph /  9.7 km/h 97 % 0.00 in /  0 mm 0 W/m2
02:36 44.3 °F /  6.8 °C 43.5 °F /  6.4 °C 30.58 in /  1035.4 hPa Calm   -999.0 mph /  -1607.7 km/h 97 % 0.00 in /  0 mm 0 W/m2
02:40 44.3 °F /  6.8 °C 43.5 °F /  6.4 °C 30.58 in /  1035.4 hPa Calm   6.0 mph /  9.7 km/h 97 % 0.00 in /  0 mm 0 W/m2
02:41 44.3 °F /  6.8 °C 43.5 °F /  6.4 °C 30.58 in /  1035.4 hPa Calm   -999.0 mph /  -1607.7 km/h 97 % 0.00 in /  0 mm 0 W/m2
02:45 44.3 °F /  6.8 °C 43.5 °F /  6.4 °C 30.58 in /  1035.4 hPa Calm   6.0 mph /  9.7 km/h 97 % 0.00 in /  0 mm 0 W/m2
02:46 44.3 °F /  6.8 °C 43.5 °F /  6.4 °C 30.58 in /  1035.4 hPa Calm   -999.0 mph /  -1607.7 km/h 97 % 0.00 in /  0 mm 0 W/m2
02:50 44.3 °F /  6.8 °C 43.5 °F /  6.4 °C 30.58 in /  1035.4 hPa Calm   6.0 mph /  9.7 km/h 97 % 0.00 in /  0 mm 0 W/m2
02:51 44.3 °F /  6.8 °C 43.5 °F /  6.4 °C 30.58 in /  1035.4 hPa Calm   -999.0 mph /  -1607.7 km/h 97 % 0.00 in /  0 mm 0 W/m2
02:55 44.3 °F /  6.8 °C 43.5 °F /  6.4 °C 30.58 in /  1035.4 hPa Calm   6.0 mph /  9.7 km/h 97 % 0.00 in /  0 mm 0 W/m2
02:56 44.3 °F /  6.8 °C 43.5 °F /  6.4 °C 30.58 in /  1035.4 hPa Calm   -999.0 mph /  -1607.7 km/h 97 % 0.00 in /  0 mm 0 W/m2
03:01 44.3 °F /  6.8 °C 43.5 °F /  6.4 °C 30.58 in /  1035.4 hPa Calm   -999.0 mph /  -1607.7 km/h 97 % 0.00 in /  0 mm 0 W/m2
03:05 44.3 °F /  6.8 °C 43.5 °F /  6.4 °C 30.58 in /  1035.4 hPa Calm   6.0 mph /  9.7 km/h 97 % 0.00 in /  0 mm 0 W/m2
03:06 44.3 °F /  6.8 °C 43.5 °F /  6.4 °C 30.58 in /  1035.4 hPa Calm   -999.0 mph /  -1607.7 km/h 97 % 0.00 in /  0 mm 0 W/m2
03:10 44.3 °F /  6.8 °C 43.5 °F /  6.4 °C 30.57 in /  1035.1 hPa Calm   6.0 mph /  9.7 km/h 97 % 0.00 in /  0 mm 0 W/m2
03:11 44.3 °F /  6.8 °C 43.5 °F /  6.4 °C 30.58 in /  1035.4 hPa Calm   -999.0 mph /  -1607.7 km/h 97 % 0.00 in /  0 mm 0 W/m2
03:15 44.2 °F /  6.8 °C 43.4 °F /  6.3 °C 30.58 in /  1035.4 hPa Calm   6.0 mph /  9.7 km/h 97 % 0.00 in /  0 mm 0 W/m2
03:16 44.3 °F /  6.8 °C 43.5 °F /  6.4 °C 30.58 in /  1035.4 hPa Calm   -999.0 mph /  -1607.7 km/h 97 % 0.00 in /  0 mm 0 W/m2
03:20 44.3 °F /  6.8 °C 43.5 °F /  6.4 °C 30.57 in /  1035.1 hPa Calm   6.0 mph /  9.7 km/h 97 % 0.00 in /  0 mm 0 W/m2
03:21 44.3 °F /  6.8 °C 43.5 °F /  6.4 °C 30.58 in /  1035.4 hPa Calm   -999.0 mph /  -1607.7 km/h 97 % 0.00 in /  0 mm 0 W/m2
03:25 44.2 °F /  6.8 °C 43.4 °F /  6.3 °C 30.57 in /  1035.1 hPa Calm   6.0 mph /  9.7 km/h 97 % 0.00 in /  0 mm 0 W/m2
03:26 44.3 °F /  6.8 °C 43.5 °F /  6.4 °C 30.57 in /  1035.1 hPa Calm   -999.0 mph /  -1607.7 km/h 97 % 0.00 in /  0 mm 0 W/m2
03:30 44.3 °F /  6.8 °C 43.5 °F /  6.4 °C 30.57 in /  1035.1 hPa Calm   6.0 mph /  9.7 km/h 97 % 0.00 in /  0 mm 0 W/m2
03:31 44.3 °F /  6.8 °C 43.5 °F /  6.4 °C 30.57 in /  1035.1 hPa Calm   -999.0 mph /  -1607.7 km/h 97 % 0.00 in /  0 mm 0 W/m2
03:35 44.2 °F /  6.8 °C 43.4 °F /  6.3 °C 30.58 in /  1035.4 hPa Calm   6.0 mph /  9.7 km/h 97 % 0.00 in /  0 mm 0 W/m2
03:36 44.3 °F /  6.8 °C 43.5 °F /  6.4 °C 30.57 in /  1035.1 hPa Calm   -999.0 mph /  -1607.7 km/h 97 % 0.00 in /  0 mm 0 W/m2
03:41 44.2 °F /  6.8 °C 43.4 °F /  6.3 °C 30.57 in /  1035.1 hPa Calm   -999.0 mph /  -1607.7 km/h 97 % 0.00 in /  0 mm 0 W/m2
03:45 44.2 °F /  6.8 °C 43.4 °F /  6.3 °C 30.57 in /  1035.1 hPa Calm   6.0 mph /  9.7 km/h 97 % 0.00 in /  0 mm 0 W/m2
03:46 44.2 °F /  6.8 °C 43.4 °F /  6.3 °C 30.57 in /  1035.1 hPa Calm   -999.0 mph /  -1607.7 km/h 97 % 0.00 in /  0 mm 0 W/m2
03:50 44.2 °F /  6.8 °C 43.4 °F /  6.3 °C 30.57 in /  1035.1 hPa Calm   6.0 mph /  9.7 km/h 97 % 0.00 in /  0 mm 0 W/m2
03:51 44.2 °F /  6.8 °C 43.4 °F /  6.3 °C 30.57 in /  1035.1 hPa Calm   -999.0 mph /  -1607.7 km/h 97 % 0.00 in /  0 mm 0 W/m2
03:55 44.2 °F /  6.8 °C 43.4 °F /  6.3 °C 30.57 in /  1035.1 hPa Calm   6.0 mph /  9.7 km/h 97 % 0.00 in /  0 mm 0 W/m2
03:56 44.2 °F /  6.8 °C 43.4 °F /  6.3 °C 30.57 in /  1035.1 hPa Calm   -999.0 mph /  -1607.7 km/h 97 % 0.00 in /  0 mm 0 W/m2
04:00 44.2 °F /  6.8 °C 43.4 °F /  6.3 °C 30.57 in /  1035.1 hPa Calm   6.0 mph /  9.7 km/h 97 % 0.00 in /  0 mm 0 W/m2
04:01 44.2 °F /  6.8 °C 43.4 °F /  6.3 °C 30.57 in /  1035.1 hPa Calm   -999.0 mph /  -1607.7 km/h 97 % 0.00 in /  0 mm 0 W/m2
04:05 44.3 °F /  6.8 °C 43.5 °F /  6.4 °C 30.57 in /  1035.1 hPa Calm   6.0 mph /  9.7 km/h 97 % 0.00 in /  0 mm 0 W/m2
04:06 44.2 °F /  6.8 °C 43.4 °F /  6.3 °C 30.57 in /  1035.1 hPa Calm   -999.0 mph /  -1607.7 km/h 97 % 0.00 in /  0 mm 0 W/m2
04:10 44.3 °F /  6.8 °C 43.5 °F /  6.4 °C 30.57 in /  1035.1 hPa Calm   6.0 mph /  9.7 km/h 97 % 0.00 in /  0 mm 0 W/m2
04:11 44.3 °F /  6.8 °C 43.5 °F /  6.4 °C 30.57 in /  1035.1 hPa Calm   -999.0 mph /  -1607.7 km/h 97 % 0.00 in /  0 mm 0 W/m2
04:16 44.3 °F /  6.8 °C 43.5 °F /  6.4 °C 30.57 in /  1035.1 hPa Calm   -999.0 mph /  -1607.7 km/h 97 % 0.00 in /  0 mm 0 W/m2
04:20 44.3 °F /  6.8 °C 43.5 °F /  6.4 °C 30.57 in /  1035.1 hPa Calm   6.0 mph /  9.7 km/h 97 % 0.00 in /  0 mm 0 W/m2
04:21 44.3 °F /  6.8 °C 43.5 °F /  6.4 °C 30.57 in /  1035.1 hPa Calm   -999.0 mph /  -1607.7 km/h 97 % 0.00 in /  0 mm 0 W/m2
04:26 44.3 °F /  6.8 °C 43.5 °F /  6.4 °C 30.57 in /  1035.1 hPa West 1.0 mph /  1.6 km/h -999.0 mph /  -1607.7 km/h 97 % 0.00 in /  0 mm 0 W/m2
04:30 44.3 °F /  6.8 °C 43.5 °F /  6.4 °C 30.57 in /  1035.1 hPa West 1.0 mph /  1.6 km/h 6.0 mph /  9.7 km/h 97 % 0.00 in /  0 mm 0 W/m2
04:31 44.3 °F /  6.8 °C 43.5 °F /  6.4 °C 30.57 in /  1035.1 hPa West 1.0 mph /  1.6 km/h -999.0 mph /  -1607.7 km/h 97 % 0.00 in /  0 mm 0 W/m2
04:35 44.3 °F /  6.8 °C 43.5 °F /  6.4 °C 30.57 in /  1035.1 hPa West 2.0 mph /  3.2 km/h 6.0 mph /  9.7 km/h 97 % 0.00 in /  0 mm 0 W/m2
04:36 44.3 °F /  6.8 °C 43.5 °F /  6.4 °C 30.57 in /  1035.1 hPa West 1.0 mph /  1.6 km/h -999.0 mph /  -1607.7 km/h 97 % 0.00 in /  0 mm 0 W/m2
04:40 44.4 °F /  6.9 °C 43.6 °F /  6.4 °C 30.57 in /  1035.1 hPa West 2.0 mph /  3.2 km/h 2.0 mph /  3.2 km/h 97 % 0.00 in /  0 mm 0 W/m2
04:41 44.4 °F /  6.9 °C 43.6 °F /  6.4 °C 30.57 in /  1035.1 hPa West 2.0 mph /  3.2 km/h -999.0 mph /  -1607.7 km/h 97 % 0.00 in /  0 mm 0 W/m2
04:45 44.4 °F /  6.9 °C 43.6 °F /  6.4 °C 30.57 in /  1035.1 hPa West 1.0 mph /  1.6 km/h 4.0 mph /  6.4 km/h 97 % 0.00 in /  0 mm 0 W/m2
04:46 44.4 °F /  6.9 °C 43.6 °F /  6.4 °C 30.57 in /  1035.1 hPa West 2.0 mph /  3.2 km/h -999.0 mph /  -1607.7 km/h 97 % 0.00 in /  0 mm 0 W/m2
04:50 44.4 °F /  6.9 °C 43.6 °F /  6.4 °C 30.57 in /  1035.1 hPa West 1.0 mph /  1.6 km/h 1.0 mph /  1.6 km/h 97 % 0.00 in /  0 mm 0 W/m2
04:51 44.4 °F /  6.9 °C 43.6 °F /  6.4 °C 30.57 in /  1035.1 hPa West 2.0 mph /  3.2 km/h -999.0 mph /  -1607.7 km/h 97 % 0.00 in /  0 mm 0 W/m2
04:55 44.4 °F /  6.9 °C 43.6 °F /  6.4 °C 30.57 in /  1035.1 hPa West 1.0 mph /  1.6 km/h 6.0 mph /  9.7 km/h 97 % 0.00 in /  0 mm 0 W/m2
04:56 44.4 °F /  6.9 °C 43.6 °F /  6.4 °C 30.57 in /  1035.1 hPa Calm   -999.0 mph /  -1607.7 km/h 97 % 0.00 in /  0 mm 0 W/m2
05:01 44.4 °F /  6.9 °C 43.6 °F /  6.4 °C 30.57 in /  1035.1 hPa Calm   -999.0 mph /  -1607.7 km/h 97 % 0.00 in /  0 mm 0 W/m2
05:05 44.4 °F /  6.9 °C 43.6 °F /  6.4 °C 30.57 in /  1035.1 hPa Calm   6.0 mph /  9.7 km/h 97 % 0.00 in /  0 mm 0 W/m2
05:06 44.4 °F /  6.9 °C 43.6 °F /  6.4 °C 30.57 in /  1035.1 hPa Calm   -999.0 mph /  -1607.7 km/h 97 % 0.00 in /  0 mm 0 W/m2
05:10 44.3 °F /  6.8 °C 43.5 °F /  6.4 °C 30.57 in /  1035.1 hPa Calm   6.0 mph /  9.7 km/h 97 % 0.00 in /  0 mm 0 W/m2
05:11 44.3 °F /  6.8 °C 43.5 °F /  6.4 °C 30.58 in /  1035.4 hPa Calm   -999.0 mph /  -1607.7 km/h 97 % 0.00 in /  0 mm 0 W/m2
05:15 44.3 °F /  6.8 °C 43.5 °F /  6.4 °C 30.58 in /  1035.4 hPa Calm   6.0 mph /  9.7 km/h 97 % 0.00 in /  0 mm 0 W/m2
05:16 44.3 °F /  6.8 °C 43.5 °F /  6.4 °C 30.58 in /  1035.4 hPa Calm   -999.0 mph /  -1607.7 km/h 97 % 0.00 in /  0 mm 0 W/m2
05:20 44.3 °F /  6.8 °C 43.5 °F /  6.4 °C 30.58 in /  1035.4 hPa Calm   6.0 mph /  9.7 km/h 97 % 0.00 in /  0 mm 0 W/m2
05:21 44.3 °F /  6.8 °C 43.5 °F /  6.4 °C 30.58 in /  1035.4 hPa Calm   -999.0 mph /  -1607.7 km/h 97 % 0.00 in /  0 mm 0 W/m2
05:26 44.3 °F /  6.8 °C 43.5 °F /  6.4 °C 30.58 in /  1035.4 hPa Calm   -999.0 mph /  -1607.7 km/h 97 % 0.00 in /  0 mm 0 W/m2
05:30 44.3 °F /  6.8 °C 43.5 °F /  6.4 °C 30.58 in /  1035.4 hPa Calm   6.0 mph /  9.7 km/h 97 % 0.00 in /  0 mm 0 W/m2
05:31 44.3 °F /  6.8 °C 43.5 °F /  6.4 °C 30.58 in /  1035.4 hPa Calm   -999.0 mph /  -1607.7 km/h 97 % 0.00 in /  0 mm 0 W/m2
05:35 44.3 °F /  6.8 °C 43.5 °F /  6.4 °C 30.58 in /  1035.4 hPa Calm   6.0 mph /  9.7 km/h 97 % 0.00 in /  0 mm 0 W/m2
05:36 44.3 °F /  6.8 °C 43.5 °F /  6.4 °C 30.58 in /  1035.4 hPa Calm   -999.0 mph /  -1607.7 km/h 97 % 0.00 in /  0 mm 0 W/m2
05:40 44.3 °F /  6.8 °C 43.5 °F /  6.4 °C 30.58 in /  1035.4 hPa Calm   6.0 mph /  9.7 km/h 97 % 0.00 in /  0 mm 0 W/m2
05:41 44.3 °F /  6.8 °C 43.5 °F /  6.4 °C 30.58 in /  1035.4 hPa Calm   -999.0 mph /  -1607.7 km/h 97 % 0.00 in /  0 mm 0 W/m2
05:45 44.4 °F /  6.9 °C 43.6 °F /  6.4 °C 30.58 in /  1035.4 hPa Calm   6.0 mph /  9.7 km/h 97 % 0.00 in /  0 mm 0 W/m2
05:46 44.3 °F /  6.8 °C 43.5 °F /  6.4 °C 30.58 in /  1035.4 hPa Calm   -999.0 mph /  -1607.7 km/h 97 % 0.00 in /  0 mm 0 W/m2
05:51 44.3 °F /  6.8 °C 43.5 °F /  6.4 °C 30.58 in /  1035.4 hPa Calm   -999.0 mph /  -1607.7 km/h 97 % 0.00 in /  0 mm 0 W/m2
05:55 44.3 °F /  6.8 °C 43.5 °F /  6.4 °C 30.58 in /  1035.4 hPa Calm   6.0 mph /  9.7 km/h 97 % 0.00 in /  0 mm 0 W/m2
05:56 44.3 °F /  6.8 °C 43.5 °F /  6.4 °C 30.58 in /  1035.4 hPa Calm   -999.0 mph /  -1607.7 km/h 97 % 0.00 in /  0 mm 0 W/m2
06:01 44.3 °F /  6.8 °C 43.5 °F /  6.4 °C 30.58 in /  1035.4 hPa Calm   -999.0 mph /  -1607.7 km/h 97 % 0.00 in /  0 mm 0 W/m2
06:05 44.3 °F /  6.8 °C 43.5 °F /  6.4 °C 30.58 in /  1035.4 hPa Calm   6.0 mph /  9.7 km/h 97 % 0.00 in /  0 mm 0 W/m2
06:06 44.3 °F /  6.8 °C 43.5 °F /  6.4 °C 30.58 in /  1035.4 hPa Calm   -999.0 mph /  -1607.7 km/h 97 % 0.00 in /  0 mm 0 W/m2
06:10 44.3 °F /  6.8 °C 43.5 °F /  6.4 °C 30.58 in /  1035.4 hPa Calm   6.0 mph /  9.7 km/h 97 % 0.00 in /  0 mm 0 W/m2
06:11 44.3 °F /  6.8 °C 43.5 °F /  6.4 °C 30.58 in /  1035.4 hPa Calm   -999.0 mph /  -1607.7 km/h 97 % 0.00 in /  0 mm 0 W/m2
06:15 44.2 °F /  6.8 °C 43.4 °F /  6.3 °C 30.58 in /  1035.4 hPa Calm   6.0 mph /  9.7 km/h 97 % 0.00 in /  0 mm 0 W/m2
06:16 44.3 °F /  6.8 °C 43.5 °F /  6.4 °C 30.58 in /  1035.4 hPa Calm   -999.0 mph /  -1607.7 km/h 97 % 0.00 in /  0 mm 0 W/m2
06:20 44.2 °F /  6.8 °C 43.4 °F /  6.3 °C 30.58 in /  1035.4 hPa Calm   6.0 mph /  9.7 km/h 97 % 0.00 in /  0 mm 0 W/m2
06:21 44.3 °F /  6.8 °C 43.5 °F /  6.4 °C 30.58 in /  1035.4 hPa Calm   -999.0 mph /  -1607.7 km/h 97 % 0.00 in /  0 mm 0 W/m2
06:25 44.1 °F /  6.7 °C 43.3 °F /  6.3 °C 30.58 in /  1035.4 hPa Calm   6.0 mph /  9.7 km/h 97 % 0.00 in /  0 mm 0 W/m2
06:26 44.2 °F /  6.8 °C 43.4 °F /  6.3 °C 30.58 in /  1035.4 hPa Calm   -999.0 mph /  -1607.7 km/h 97 % 0.00 in /  0 mm 0 W/m2
06:31 44.2 °F /  6.8 °C 43.4 °F /  6.3 °C 30.58 in /  1035.4 hPa Calm   -999.0 mph /  -1607.7 km/h 97 % 0.00 in /  0 mm 0 W/m2
06:35 44.1 °F /  6.7 °C 43.3 °F /  6.3 °C 30.58 in /  1035.4 hPa Calm   6.0 mph /  9.7 km/h 97 % 0.00 in /  0 mm 0 W/m2
06:36 44.2 °F /  6.8 °C 43.4 °F /  6.3 °C 30.58 in /  1035.4 hPa Calm   -999.0 mph /  -1607.7 km/h 97 % 0.00 in /  0 mm 0 W/m2
06:40 44.1 °F /  6.7 °C 43.3 °F /  6.3 °C 30.59 in /  1035.8 hPa Calm   6.0 mph /  9.7 km/h 97 % 0.00 in /  0 mm 0 W/m2
06:41 44.1 °F /  6.7 °C 43.3 °F /  6.3 °C 30.59 in /  1035.8 hPa Calm   -999.0 mph /  -1607.7 km/h 97 % 0.00 in /  0 mm 0 W/m2
06:45 44.1 °F /  6.7 °C 43.3 °F /  6.3 °C 30.59 in /  1035.8 hPa Calm   6.0 mph /  9.7 km/h 97 % 0.00 in /  0 mm 0 W/m2
06:46 44.1 °F /  6.7 °C 43.3 °F /  6.3 °C 30.59 in /  1035.8 hPa Calm   -999.0 mph /  -1607.7 km/h 97 % 0.00 in /  0 mm 0 W/m2
06:50 44.1 °F /  6.7 °C 43.3 °F /  6.3 °C 30.59 in /  1035.8 hPa Calm   6.0 mph /  9.7 km/h 97 % 0.00 in /  0 mm 0 W/m2
06:51 44.1 °F /  6.7 °C 43.3 °F /  6.3 °C 30.59 in /  1035.8 hPa Calm   -999.0 mph /  -1607.7 km/h 97 % 0.00 in /  0 mm 0 W/m2
06:55 44.1 °F /  6.7 °C 43.6 °F /  6.4 °C 30.59 in /  1035.8 hPa Calm   6.0 mph /  9.7 km/h 98 % 0.00 in /  0 mm 0 W/m2
06:56 44.1 °F /  6.7 °C 43.6 °F /  6.4 °C 30.59 in /  1035.8 hPa Calm   -999.0 mph /  -1607.7 km/h 98 % 0.00 in /  0 mm 0 W/m2
07:00 44.1 °F /  6.7 °C 43.6 °F /  6.4 °C 30.59 in /  1035.8 hPa Calm   6.0 mph /  9.7 km/h 98 % 0.00 in /  0 mm 0 W/m2
07:01 44.1 °F /  6.7 °C 43.6 °F /  6.4 °C 30.59 in /  1035.8 hPa Calm   -999.0 mph /  -1607.7 km/h 98 % 0.00 in /  0 mm 0 W/m2
07:05 44.1 °F /  6.7 °C 43.6 °F /  6.4 °C 30.60 in /  1036.1 hPa Calm   6.0 mph /  9.7 km/h 98 % 0.00 in /  0 mm 0 W/m2
07:06 44.1 °F /  6.7 °C 43.6 °F /  6.4 °C 30.59 in /  1035.8 hPa Calm   -999.0 mph /  -1607.7 km/h 98 % 0.00 in /  0 mm 0 W/m2
07:10 44.1 °F /  6.7 °C 43.6 °F /  6.4 °C 30.59 in /  1035.8 hPa Calm   6.0 mph /  9.7 km/h 98 % 0.00 in /  0 mm 0 W/m2
07:11 44.1 °F /  6.7 °C 43.6 °F /  6.4 °C 30.59 in /  1035.8 hPa Calm   -999.0 mph /  -1607.7 km/h 98 % 0.00 in /  0 mm 0 W/m2
07:16 44.1 °F /  6.7 °C 43.6 °F /  6.4 °C 30.59 in /  1035.8 hPa Calm   -999.0 mph /  -1607.7 km/h 98 % 0.00 in /  0 mm 0 W/m2
07:20 44.2 °F /  6.8 °C 43.7 °F /  6.5 °C 30.60 in /  1036.1 hPa WNW 1.0 mph /  1.6 km/h 6.0 mph /  9.7 km/h 98 % 0.00 in /  0 mm 0 W/m2
07:21 44.1 °F /  6.7 °C 43.6 °F /  6.4 °C 30.59 in /  1035.8 hPa Calm   -999.0 mph /  -1607.7 km/h 98 % 0.00 in /  0 mm 0 W/m2
07:25 44.3 °F /  6.8 °C 43.8 °F /  6.6 °C 30.60 in /  1036.1 hPa WNW 2.0 mph /  3.2 km/h 6.0 mph /  9.7 km/h 98 % 0.00 in /  0 mm 0 W/m2
07:26 44.3 °F /  6.8 °C 43.8 °F /  6.6 °C 30.60 in /  1036.1 hPa WNW 3.0 mph /  4.8 km/h -999.0 mph /  -1607.7 km/h 98 % 0.00 in /  0 mm 0 W/m2
07:30 44.3 °F /  6.8 °C 43.8 °F /  6.6 °C 30.60 in /  1036.1 hPa WNW 3.0 mph /  4.8 km/h 3.0 mph /  4.8 km/h 98 % 0.00 in /  0 mm 0 W/m2
07:31 44.3 °F /  6.8 °C 43.8 °F /  6.6 °C 30.60 in /  1036.1 hPa WNW 3.0 mph /  4.8 km/h -999.0 mph /  -1607.7 km/h 98 % 0.00 in /  0 mm 0 W/m2
07:35 44.4 °F /  6.9 °C 43.9 °F /  6.6 °C 30.60 in /  1036.1 hPa WNW 3.0 mph /  4.8 km/h 6.0 mph /  9.7 km/h 98 % 0.00 in /  0 mm 0 W/m2
07:36 44.3 °F /  6.8 °C 43.8 °F /  6.6 °C 30.60 in /  1036.1 hPa WNW 3.0 mph /  4.8 km/h -999.0 mph /  -1607.7 km/h 98 % 0.00 in /  0 mm 0 W/m2
07:40 44.4 °F /  6.9 °C 43.9 °F /  6.6 °C 30.60 in /  1036.1 hPa WNW 2.0 mph /  3.2 km/h 2.0 mph /  3.2 km/h 98 % 0.00 in /  0 mm 0 W/m2
07:41 44.4 °F /  6.9 °C 43.6 °F /  6.4 °C 30.60 in /  1036.1 hPa WNW 2.0 mph /  3.2 km/h -999.0 mph /  -1607.7 km/h 97 % 0.00 in /  0 mm 0 W/m2
07:45 44.4 °F /  6.9 °C 43.6 °F /  6.4 °C 30.60 in /  1036.1 hPa WNW 1.0 mph /  1.6 km/h 6.0 mph /  9.7 km/h 97 % 0.00 in /  0 mm 0 W/m2
07:46 44.4 °F /  6.9 °C 43.6 °F /  6.4 °C 30.60 in /  1036.1 hPa WNW 2.0 mph /  3.2 km/h -999.0 mph /  -1607.7 km/h 97 % 0.00 in /  0 mm 0 W/m2
07:51 44.4 °F /  6.9 °C 43.6 °F /  6.4 °C 30.60 in /  1036.1 hPa WNW 2.0 mph /  3.2 km/h -999.0 mph /  -1607.7 km/h 97 % 0.00 in /  0 mm 0 W/m2
07:55 44.4 °F /  6.9 °C 43.6 °F /  6.4 °C 30.60 in /  1036.1 hPa WNW 1.0 mph /  1.6 km/h 6.0 mph /  9.7 km/h 97 % 0.00 in /  0 mm 0 W/m2
07:56 44.4 °F /  6.9 °C 43.6 °F /  6.4 °C 30.60 in /  1036.1 hPa WNW 1.0 mph /  1.6 km/h -999.0 mph /  -1607.7 km/h 97 % 0.00 in /  0 mm 0 W/m2
08:00 44.3 °F /  6.8 °C 43.5 °F /  6.4 °C 30.60 in /  1036.1 hPa WNW 1.0 mph /  1.6 km/h 6.0 mph /  9.7 km/h 97 % 0.00 in /  0 mm 0 W/m2
08:01 44.4 °F /  6.9 °C 43.6 °F /  6.4 °C 30.60 in /  1036.1 hPa WNW 1.0 mph /  1.6 km/h -999.0 mph /  -1607.7 km/h 97 % 0.00 in /  0 mm 0 W/m2
08:05 44.3 °F /  6.8 °C 43.5 °F /  6.4 °C 30.60 in /  1036.1 hPa WNW 2.0 mph /  3.2 km/h 6.0 mph /  9.7 km/h 97 % 0.00 in /  0 mm 0 W/m2
08:06 44.4 °F /  6.9 °C 43.6 °F /  6.4 °C 30.60 in /  1036.1 hPa WNW 1.0 mph /  1.6 km/h -999.0 mph /  -1607.7 km/h 97 % 0.00 in /  0 mm 0 W/m2
08:10 44.2 °F /  6.8 °C 43.4 °F /  6.3 °C 30.61 in /  1036.5 hPa WNW 3.0 mph /  4.8 km/h 6.0 mph /  9.7 km/h 97 % 0.00 in /  0 mm 0 W/m2
08:11 44.2 °F /  6.8 °C 43.4 °F /  6.3 °C 30.61 in /  1036.5 hPa WNW 2.0 mph /  3.2 km/h -999.0 mph /  -1607.7 km/h 97 % 0.00 in /  0 mm 0 W/m2
08:15 44.2 °F /  6.8 °C 43.4 °F /  6.3 °C 30.61 in /  1036.5 hPa WNW 2.0 mph /  3.2 km/h 6.0 mph /  9.7 km/h 97 % 0.00 in /  0 mm 0 W/m2
08:16 44.2 °F /  6.8 °C 43.4 °F /  6.3 °C 30.61 in /  1036.5 hPa WNW 2.0 mph /  3.2 km/h -999.0 mph /  -1607.7 km/h 97 % 0.00 in /  0 mm 0 W/m2
08:20 44.2 °F /  6.8 °C 43.4 °F /  6.3 °C 30.61 in /  1036.5 hPa WNW 2.0 mph /  3.2 km/h 2.0 mph /  3.2 km/h 97 % 0.00 in /  0 mm 5 W/m2
08:21 44.2 °F /  6.8 °C 43.4 °F /  6.3 °C 30.61 in /  1036.5 hPa WNW 2.0 mph /  3.2 km/h -999.0 mph /  -1607.7 km/h 97 % 0.00 in /  0 mm 0 W/m2
08:26 44.2 °F /  6.8 °C 43.4 °F /  6.3 °C 30.61 in /  1036.5 hPa WNW 3.0 mph /  4.8 km/h -999.0 mph /  -1607.7 km/h 97 % 0.00 in /  0 mm 4 W/m2
08:30 44.1 °F /  6.7 °C 43.3 °F /  6.3 °C 30.61 in /  1036.5 hPa WNW 3.0 mph /  4.8 km/h 6.0 mph /  9.7 km/h 97 % 0.00 in /  0 mm 5 W/m2
08:31 44.2 °F /  6.8 °C 43.4 °F /  6.3 °C 30.61 in /  1036.5 hPa WNW 3.0 mph /  4.8 km/h -999.0 mph /  -1607.7 km/h 97 % 0.00 in /  0 mm 4 W/m2
08:35 44.1 °F /  6.7 °C 43.3 °F /  6.3 °C 30.61 in /  1036.5 hPa West 4.0 mph /  6.4 km/h 6.0 mph /  9.7 km/h 97 % 0.00 in /  0 mm 5 W/m2
08:36 44.2 °F /  6.8 °C 43.4 °F /  6.3 °C 30.61 in /  1036.5 hPa WNW 3.0 mph /  4.8 km/h -999.0 mph /  -1607.7 km/h 97 % 0.00 in /  0 mm 4 W/m2
08:40 44.2 °F /  6.8 °C 43.4 °F /  6.3 °C 30.61 in /  1036.5 hPa NW 5.0 mph /  8 km/h 6.0 mph /  9.7 km/h 97 % 0.00 in /  0 mm 7 W/m2
08:41 44.2 °F /  6.8 °C 43.4 °F /  6.3 °C 30.61 in /  1036.5 hPa WNW 5.0 mph /  8 km/h -999.0 mph /  -1607.7 km/h 97 % 0.00 in /  0 mm 6 W/m2
08:45 44.2 °F /  6.8 °C 43.4 °F /  6.3 °C 30.61 in /  1036.5 hPa West 5.0 mph /  8 km/h 6.0 mph /  9.7 km/h 97 % 0.00 in /  0 mm 7 W/m2
08:46 44.2 °F /  6.8 °C 43.4 °F /  6.3 °C 30.61 in /  1036.5 hPa WNW 5.0 mph /  8 km/h -999.0 mph /  -1607.7 km/h 97 % 0.00 in /  0 mm 6 W/m2
08:50 44.3 °F /  6.8 °C 43.5 °F /  6.4 °C 30.61 in /  1036.5 hPa WNW 5.0 mph /  8 km/h 5.0 mph /  8 km/h 97 % 0.00 in /  0 mm 11 W/m2
08:51 44.2 °F /  6.8 °C 43.4 °F /  6.3 °C 30.61 in /  1036.5 hPa WNW 5.0 mph /  8 km/h -999.0 mph /  -1607.7 km/h 97 % 0.00 in /  0 mm 6 W/m2
08:55 44.3 °F /  6.8 °C 43.5 °F /  6.4 °C 30.62 in /  1036.8 hPa WNW 6.0 mph /  9.7 km/h 9.0 mph /  14.5 km/h 97 % 0.00 in /  0 mm 12 W/m2
08:56 44.3 °F /  6.8 °C 43.5 °F /  6.4 °C 30.62 in /  1036.8 hPa WNW 6.0 mph /  9.7 km/h -999.0 mph /  -1607.7 km/h 97 % 0.00 in /  0 mm 11 W/m2
09:01 44.3 °F /  6.8 °C 43.5 °F /  6.4 °C 30.62 in /  1036.8 hPa WNW 6.0 mph /  9.7 km/h -999.0 mph /  -1607.7 km/h 97 % 0.00 in /  0 mm 11 W/m2
09:05 44.4 °F /  6.9 °C 43.6 °F /  6.4 °C 30.62 in /  1036.8 hPa WNW 6.0 mph /  9.7 km/h 6.0 mph /  9.7 km/h 97 % 0.00 in /  0 mm 11 W/m2
09:06 44.3 °F /  6.8 °C 43.5 °F /  6.4 °C 30.62 in /  1036.8 hPa WNW 6.0 mph /  9.7 km/h -999.0 mph /  -1607.7 km/h 97 % 0.00 in /  0 mm 11 W/m2
09:10 44.5 °F /  6.9 °C 43.7 °F /  6.5 °C 30.62 in /  1036.8 hPa WNW 5.0 mph /  8 km/h 6.0 mph /  9.7 km/h 97 % 0.00 in /  0 mm 16 W/m2
09:11 44.4 °F /  6.9 °C 43.6 °F /  6.4 °C 30.62 in /  1036.8 hPa WNW 5.0 mph /  8 km/h -999.0 mph /  -1607.7 km/h 97 % 0.00 in /  0 mm 18 W/m2
09:15 44.5 °F /  6.9 °C 43.7 °F /  6.5 °C 30.62 in /  1036.8 hPa WNW 5.0 mph /  8 km/h 6.0 mph /  9.7 km/h 97 % 0.00 in /  0 mm 32 W/m2
09:16 44.4 °F /  6.9 °C 43.6 °F /  6.4 °C 30.62 in /  1036.8 hPa WNW 5.0 mph /  8 km/h -999.0 mph /  -1607.7 km/h 97 % 0.00 in /  0 mm 18 W/m2
09:20 44.5 °F /  6.9 °C 43.7 °F /  6.5 °C 30.62 in /  1036.8 hPa WNW 5.0 mph /  8 km/h 5.0 mph /  8 km/h 97 % 0.00 in /  0 mm 35 W/m2
09:21 44.4 °F /  6.9 °C 43.6 °F /  6.4 °C 30.62 in /  1036.8 hPa WNW 5.0 mph /  8 km/h -999.0 mph /  -1607.7 km/h 97 % 0.00 in /  0 mm 18 W/m2
09:25 44.6 °F /  7 °C 43.8 °F /  6.6 °C 30.62 in /  1036.8 hPa WNW 4.0 mph /  6.4 km/h 6.0 mph /  9.7 km/h 97 % 0.00 in /  0 mm 44 W/m2
09:26 44.5 °F /  6.9 °C 43.7 °F /  6.5 °C 30.62 in /  1036.8 hPa WNW 3.0 mph /  4.8 km/h -999.0 mph /  -1607.7 km/h 97 % 0.00 in /  0 mm 40 W/m2
09:30 44.6 °F /  7 °C 43.8 °F /  6.6 °C 30.62 in /  1036.8 hPa WNW 3.0 mph /  4.8 km/h 3.0 mph /  4.8 km/h 97 % 0.00 in /  0 mm 44 W/m2
09:31 44.5 °F /  6.9 °C 43.7 °F /  6.5 °C 30.62 in /  1036.8 hPa WNW 3.0 mph /  4.8 km/h -999.0 mph /  -1607.7 km/h 97 % 0.00 in /  0 mm 40 W/m2
09:36 44.5 °F /  6.9 °C 43.7 °F /  6.5 °C 30.62 in /  1036.8 hPa WNW 3.0 mph /  4.8 km/h -999.0 mph /  -1607.7 km/h 97 % 0.00 in /  0 mm 40 W/m2
09:40 44.7 °F /  7.1 °C 43.9 °F /  6.6 °C 30.63 in /  1037.1 hPa West 3.0 mph /  4.8 km/h 6.0 mph /  9.7 km/h 97 % 0.00 in /  0 mm 49 W/m2
09:41 44.7 °F /  7.1 °C 43.9 °F /  6.6 °C 30.63 in /  1037.1 hPa WNW 3.0 mph /  4.8 km/h -999.0 mph /  -1607.7 km/h 97 % 0.00 in /  0 mm 55 W/m2
09:45 44.8 °F /  7.1 °C 44.0 °F /  6.7 °C 30.63 in /  1037.1 hPa WNW 3.0 mph /  4.8 km/h 6.0 mph /  9.7 km/h 97 % 0.00 in /  0 mm 77 W/m2
09:46 44.7 °F /  7.1 °C 43.9 °F /  6.6 °C 30.63 in /  1037.1 hPa WNW 3.0 mph /  4.8 km/h -999.0 mph /  -1607.7 km/h 97 % 0.00 in /  0 mm 55 W/m2
09:50 44.9 °F /  7.2 °C 44.1 °F /  6.7 °C 30.63 in /  1037.1 hPa WNW 3.0 mph /  4.8 km/h 6.0 mph /  9.7 km/h 97 % 0.00 in /  0 mm 76 W/m2
09:51 44.7 °F /  7.1 °C 43.9 °F /  6.6 °C 30.63 in /  1037.1 hPa WNW 3.0 mph /  4.8 km/h -999.0 mph /  -1607.7 km/h 97 % 0.00 in /  0 mm 55 W/m2
09:55 45.0 °F /  7.2 °C 44.2 °F /  6.8 °C 30.63 in /  1037.1 hPa WNW 4.0 mph /  6.4 km/h 6.0 mph /  9.7 km/h 97 % 0.00 in /  0 mm 86 W/m2
09:56 45.0 °F /  7.2 °C 43.9 °F /  6.6 °C 30.63 in /  1037.1 hPa WNW 4.0 mph /  6.4 km/h -999.0 mph /  -1607.7 km/h 96 % 0.00 in /  0 mm 82 W/m2
10:00 45.2 °F /  7.3 °C 44.1 °F /  6.7 °C 30.63 in /  1037.1 hPa WNW 5.0 mph /  8 km/h 5.0 mph /  8 km/h 96 % 0.00 in /  0 mm 77 W/m2
10:01 45.0 °F /  7.2 °C 43.9 °F /  6.6 °C 30.63 in /  1037.1 hPa WNW 4.0 mph /  6.4 km/h -999.0 mph /  -1607.7 km/h 96 % 0.00 in /  0 mm 82 W/m2
10:05 45.3 °F /  7.4 °C 44.5 °F /  6.9 °C 30.63 in /  1037.1 hPa West 3.0 mph /  4.8 km/h 6.0 mph /  9.7 km/h 97 % 0.00 in /  0 mm 109 W/m2
10:06 45.0 °F /  7.2 °C 43.9 °F /  6.6 °C 30.63 in /  1037.1 hPa WNW 4.0 mph /  6.4 km/h -999.0 mph /  -1607.7 km/h 96 % 0.00 in /  0 mm 82 W/m2
10:10 45.5 °F /  7.5 °C 44.7 °F /  7.1 °C 30.63 in /  1037.1 hPa West 2.0 mph /  3.2 km/h 2.0 mph /  3.2 km/h 97 % 0.00 in /  0 mm 86 W/m2
10:11 45.4 °F /  7.4 °C 44.3 °F /  6.8 °C 30.63 in /  1037.1 hPa West 1.0 mph /  1.6 km/h -999.0 mph /  -1607.7 km/h 96 % 0.00 in /  0 mm 96 W/m2
10:16 45.4 °F /  7.4 °C 44.3 °F /  6.8 °C 30.63 in /  1037.1 hPa West 1.0 mph /  1.6 km/h -999.0 mph /  -1607.7 km/h 96 % 0.00 in /  0 mm 96 W/m2
10:20 45.8 °F /  7.7 °C 44.7 °F /  7.1 °C 30.63 in /  1037.1 hPa Calm   6.0 mph /  9.7 km/h 96 % 0.00 in /  0 mm 142 W/m2
10:21 45.4 °F /  7.4 °C 44.3 °F /  6.8 °C 30.63 in /  1037.1 hPa West 1.0 mph /  1.6 km/h -999.0 mph /  -1607.7 km/h 96 % 0.00 in /  0 mm 96 W/m2
10:25 46.1 °F /  7.8 °C 45.0 °F /  7.2 °C 30.63 in /  1037.1 hPa West 1.0 mph /  1.6 km/h 6.0 mph /  9.7 km/h 96 % 0.00 in /  0 mm 118 W/m2
10:26 46.0 °F /  7.8 °C 44.9 °F /  7.2 °C 30.63 in /  1037.1 hPa West 1.0 mph /  1.6 km/h -999.0 mph /  -1607.7 km/h 96 % 0.00 in /  0 mm 127 W/m2
10:30 46.2 °F /  7.9 °C 45.1 °F /  7.3 °C 30.63 in /  1037.1 hPa West 2.0 mph /  3.2 km/h 6.0 mph /  9.7 km/h 96 % 0.00 in /  0 mm 120 W/m2
10:31 46.0 °F /  7.8 °C 44.9 °F /  7.2 °C 30.63 in /  1037.1 hPa West 1.0 mph /  1.6 km/h -999.0 mph /  -1607.7 km/h 96 % 0.00 in /  0 mm 127 W/m2
10:35 46.2 °F /  7.9 °C 45.1 °F /  7.3 °C 30.63 in /  1037.1 hPa West 2.0 mph /  3.2 km/h 6.0 mph /  9.7 km/h 96 % 0.00 in /  0 mm 102 W/m2
10:36 46.0 °F /  7.8 °C 44.9 °F /  7.2 °C 30.63 in /  1037.1 hPa West 1.0 mph /  1.6 km/h -999.0 mph /  -1607.7 km/h 96 % 0.00 in /  0 mm 127 W/m2
10:40 46.4 °F /  8 °C 45.3 °F /  7.4 °C 30.63 in /  1037.1 hPa NW 3.0 mph /  4.8 km/h 6.0 mph /  9.7 km/h 96 % 0.00 in /  0 mm 104 W/m2
10:41 46.3 °F /  7.9 °C 44.9 °F /  7.2 °C 30.63 in /  1037.1 hPa West 4.0 mph /  6.4 km/h -999.0 mph /  -1607.7 km/h 95 % 0.00 in /  0 mm 104 W/m2
10:45 46.5 °F /  8.1 °C 45.1 °F /  7.3 °C 30.63 in /  1037.1 hPa WNW 4.0 mph /  6.4 km/h 7.0 mph /  11.3 km/h 95 % 0.00 in /  0 mm 104 W/m2
10:46 46.3 °F /  7.9 °C 44.9 °F /  7.2 °C 30.63 in /  1037.1 hPa West 4.0 mph /  6.4 km/h -999.0 mph /  -1607.7 km/h 95 % 0.00 in /  0 mm 104 W/m2
10:51 46.3 °F /  7.9 °C 44.9 °F /  7.2 °C 30.63 in /  1037.1 hPa West 4.0 mph /  6.4 km/h -999.0 mph /  -1607.7 km/h 95 % 0.00 in /  0 mm 104 W/m2
10:55 46.6 °F /  8.1 °C 45.2 °F /  7.3 °C 30.63 in /  1037.1 hPa WNW 6.0 mph /  9.7 km/h 6.0 mph /  9.7 km/h 95 % 0.00 in /  0 mm 69 W/m2
10:56 46.6 °F /  8.1 °C 45.0 °F /  7.2 °C 30.63 in /  1037.1 hPa WNW 6.0 mph /  9.7 km/h -999.0 mph /  -1607.7 km/h 94 % 0.00 in /  0 mm 77 W/m2
11:00 46.6 °F /  8.1 °C 45.0 °F /  7.2 °C 30.63 in /  1037.1 hPa West 6.0 mph /  9.7 km/h 6.0 mph /  9.7 km/h 94 % 0.00 in /  0 mm 77 W/m2
11:01 46.6 °F /  8.1 °C 45.0 °F /  7.2 °C 30.63 in /  1037.1 hPa WNW 6.0 mph /  9.7 km/h -999.0 mph /  -1607.7 km/h 94 % 0.00 in /  0 mm 77 W/m2
11:05 46.6 °F /  8.1 °C 45.0 °F /  7.2 °C 30.63 in /  1037.1 hPa WNW 4.0 mph /  6.4 km/h 6.0 mph /  9.7 km/h 94 % 0.00 in /  0 mm 72 W/m2
11:06 46.6 °F /  8.1 °C 45.0 °F /  7.2 °C 30.63 in /  1037.1 hPa WNW 6.0 mph /  9.7 km/h -999.0 mph /  -1607.7 km/h 94 % 0.00 in /  0 mm 77 W/m2
11:10 46.7 °F /  8.2 °C 45.1 °F /  7.3 °C 30.63 in /  1037.1 hPa WNW 4.0 mph /  6.4 km/h 6.0 mph /  9.7 km/h 94 % 0.00 in /  0 mm 77 W/m2
11:11 46.7 °F /  8.2 °C 45.1 °F /  7.3 °C 30.63 in /  1037.1 hPa WNW 4.0 mph /  6.4 km/h -999.0 mph /  -1607.7 km/h 94 % 0.00 in /  0 mm 75 W/m2
11:15 46.7 °F /  8.2 °C 45.1 °F /  7.3 °C 30.63 in /  1037.1 hPa WNW 5.0 mph /  8 km/h 6.0 mph /  9.7 km/h 94 % 0.00 in /  0 mm 77 W/m2
11:16 46.7 °F /  8.2 °C 45.1 °F /  7.3 °C 30.63 in /  1037.1 hPa WNW 4.0 mph /  6.4 km/h -999.0 mph /  -1607.7 km/h 94 % 0.00 in /  0 mm 75 W/m2
11:20 46.6 °F /  8.1 °C 45.0 °F /  7.2 °C 30.63 in /  1037.1 hPa WNW 5.0 mph /  8 km/h 7.0 mph /  11.3 km/h 94 % 0.00 in /  0 mm 84 W/m2
11:21 46.7 °F /  8.2 °C 45.1 °F /  7.3 °C 30.63 in /  1037.1 hPa WNW 4.0 mph /  6.4 km/h -999.0 mph /  -1607.7 km/h 94 % 0.00 in /  0 mm 75 W/m2
11:25 46.7 °F /  8.2 °C 45.1 °F /  7.3 °C 30.63 in /  1037.1 hPa WNW 5.0 mph /  8 km/h 7.0 mph /  11.3 km/h 94 % 0.00 in /  0 mm 81 W/m2
11:26 46.7 °F /  8.2 °C 44.8 °F /  7.1 °C 30.63 in /  1037.1 hPa WNW 6.0 mph /  9.7 km/h -999.0 mph /  -1607.7 km/h 93 % 0.00 in /  0 mm 84 W/m2
11:30 46.7 °F /  8.2 °C 44.8 °F /  7.1 °C 30.63 in /  1037.1 hPa NW 6.0 mph /  9.7 km/h 6.0 mph /  9.7 km/h 93 % 0.00 in /  0 mm 91 W/m2
11:31 46.7 °F /  8.2 °C 44.8 °F /  7.1 °C 30.63 in /  1037.1 hPa WNW 6.0 mph /  9.7 km/h -999.0 mph /  -1607.7 km/h 93 % 0.00 in /  0 mm 84 W/m2
11:36 46.7 °F /  8.2 °C 44.8 °F /  7.1 °C 30.63 in /  1037.1 hPa WNW 6.0 mph /  9.7 km/h -999.0 mph /  -1607.7 km/h 93 % 0.00 in /  0 mm 84 W/m2
11:40 46.8 °F /  8.2 °C 44.9 °F /  7.2 °C 30.63 in /  1037.1 hPa West 5.0 mph /  8 km/h 7.0 mph /  11.3 km/h 93 % 0.00 in /  0 mm 58 W/m2
11:41 46.8 °F /  8.2 °C 44.9 °F /  7.2 °C 30.63 in /  1037.1 hPa WNW 6.0 mph /  9.7 km/h -999.0 mph /  -1607.7 km/h 93 % 0.00 in /  0 mm 60 W/m2
11:45 46.8 °F /  8.2 °C 44.9 °F /  7.2 °C 30.63 in /  1037.1 hPa WNW 6.0 mph /  9.7 km/h 7.0 mph /  11.3 km/h 93 % 0.00 in /  0 mm 44 W/m2
11:46 46.8 °F /  8.2 °C 44.9 °F /  7.2 °C 30.63 in /  1037.1 hPa WNW 6.0 mph /  9.7 km/h -999.0 mph /  -1607.7 km/h 93 % 0.00 in /  0 mm 60 W/m2
11:50 46.8 °F /  8.2 °C 44.9 °F /  7.2 °C 30.63 in /  1037.1 hPa NW 6.0 mph /  9.7 km/h 6.0 mph /  9.7 km/h 93 % 0.00 in /  0 mm 40 W/m2
11:51 46.8 °F /  8.2 °C 44.9 °F /  7.2 °C 30.63 in /  1037.1 hPa WNW 6.0 mph /  9.7 km/h -999.0 mph /  -1607.7 km/h 93 % 0.00 in /  0 mm 60 W/m2
11:55 46.8 °F /  8.2 °C 44.6 °F /  7 °C 30.63 in /  1037.1 hPa WNW 5.0 mph /  8 km/h 6.0 mph /  9.7 km/h 92 % 0.00 in /  0 mm 35 W/m2
11:56 46.8 °F /  8.2 °C 44.9 °F /  7.2 °C 30.63 in /  1037.1 hPa WNW 5.0 mph /  8 km/h -999.0 mph /  -1607.7 km/h 93 % 0.00 in /  0 mm 39 W/m2
12:00 46.8 °F /  8.2 °C 44.9 °F /  7.2 °C 30.63 in /  1037.1 hPa WNW 4.0 mph /  6.4 km/h 6.0 mph /  9.7 km/h 93 % 0.00 in /  0 mm 40 W/m2
12:01 46.8 °F /  8.2 °C 44.9 °F /  7.2 °C 30.63 in /  1037.1 hPa WNW 5.0 mph /  8 km/h -999.0 mph /  -1607.7 km/h 93 % 0.00 in /  0 mm 39 W/m2
12:05 46.8 °F /  8.2 °C 44.6 °F /  7 °C 30.63 in /  1037.1 hPa WNW 3.0 mph /  4.8 km/h 6.0 mph /  9.7 km/h 92 % 0.00 in /  0 mm 56 W/m2
12:06 46.8 °F /  8.2 °C 44.9 °F /  7.2 °C 30.63 in /  1037.1 hPa WNW 5.0 mph /  8 km/h -999.0 mph /  -1607.7 km/h 93 % 0.00 in /  0 mm 39 W/m2
12:10 46.8 °F /  8.2 °C 44.9 °F /  7.2 °C 30.63 in /  1037.1 hPa West 2.0 mph /  3.2 km/h 6.0 mph /  9.7 km/h 93 % 0.00 in /  0 mm 58 W/m2
12:11 46.8 °F /  8.2 °C 44.6 °F /  7 °C 30.62 in /  1036.8 hPa WNW 3.0 mph /  4.8 km/h -999.0 mph /  -1607.7 km/h 92 % 0.00 in /  0 mm 56 W/m2
12:16 46.8 °F /  8.2 °C 44.6 °F /  7 °C 30.62 in /  1036.8 hPa WNW 3.0 mph /  4.8 km/h -999.0 mph /  -1607.7 km/h 92 % 0.00 in /  0 mm 56 W/m2
12:20 46.8 °F /  8.2 °C 44.6 °F /  7 °C 30.63 in /  1037.1 hPa NW 4.0 mph /  6.4 km/h 4.0 mph /  6.4 km/h 92 % 0.00 in /  0 mm 63 W/m2
12:21 46.8 °F /  8.2 °C 44.6 °F /  7 °C 30.62 in /  1036.8 hPa WNW 3.0 mph /  4.8 km/h -999.0 mph /  -1607.7 km/h 92 % 0.00 in /  0 mm 56 W/m2
12:25 46.8 °F /  8.2 °C 44.6 °F /  7 °C 30.63 in /  1037.1 hPa WNW 4.0 mph /  6.4 km/h 6.0 mph /  9.7 km/h 92 % 0.00 in /  0 mm 53 W/m2
12:26 46.8 °F /  8.2 °C 44.6 °F /  7 °C 30.63 in /  1037.1 hPa WNW 4.0 mph /  6.4 km/h -999.0 mph /  -1607.7 km/h 92 % 0.00 in /  0 mm 58 W/m2
12:30 46.8 °F /  8.2 °C 44.6 °F /  7 °C 30.63 in /  1037.1 hPa West 4.0 mph /  6.4 km/h 4.0 mph /  6.4 km/h 92 % 0.00 in /  0 mm 54 W/m2
12:31 46.8 °F /  8.2 °C 44.6 °F /  7 °C 30.63 in /  1037.1 hPa WNW 4.0 mph /  6.4 km/h -999.0 mph /  -1607.7 km/h 92 % 0.00 in /  0 mm 58 W/m2
12:35 46.9 °F /  8.3 °C 44.7 °F /  7.1 °C 30.63 in /  1037.1 hPa West 3.0 mph /  4.8 km/h 6.0 mph /  9.7 km/h 92 % 0.00 in /  0 mm 56 W/m2
12:36 46.8 °F /  8.2 °C 44.6 °F /  7 °C 30.63 in /  1037.1 hPa WNW 4.0 mph /  6.4 km/h -999.0 mph /  -1607.7 km/h 92 % 0.00 in /  0 mm 58 W/m2
12:40 46.9 °F /  8.3 °C 44.4 °F /  6.9 °C 30.63 in /  1037.1 hPa WNW 4.0 mph /  6.4 km/h 6.0 mph /  9.7 km/h 91 % 0.00 in /  0 mm 58 W/m2
12:41 46.9 °F /  8.3 °C 44.7 °F /  7.1 °C 30.62 in /  1036.8 hPa NW 4.0 mph /  6.4 km/h -999.0 mph /  -1607.7 km/h 92 % 0.00 in /  0 mm 58 W/m2
12:45 46.9 °F /  8.3 °C 44.7 °F /  7.1 °C 30.62 in /  1036.8 hPa WNW 4.0 mph /  6.4 km/h 6.0 mph /  9.7 km/h 92 % 0.00 in /  0 mm 58 W/m2
12:46 46.9 °F /  8.3 °C 44.7 °F /  7.1 °C 30.62 in /  1036.8 hPa NW 4.0 mph /  6.4 km/h -999.0 mph /  -1607.7 km/h 92 % 0.00 in /  0 mm 58 W/m2
12:50 46.9 °F /  8.3 °C 44.4 °F /  6.9 °C 30.62 in /  1036.8 hPa West 3.0 mph /  4.8 km/h 3.0 mph /  4.8 km/h 91 % 0.00 in /  0 mm 63 W/m2
12:51 46.9 °F /  8.3 °C 44.7 °F /  7.1 °C 30.62 in /  1036.8 hPa NW 4.0 mph /  6.4 km/h -999.0 mph /  -1607.7 km/h 92 % 0.00 in /  0 mm 58 W/m2
12:56 47.0 °F /  8.3 °C 44.5 °F /  6.9 °C 30.62 in /  1036.8 hPa WNW 3.0 mph /  4.8 km/h -999.0 mph /  -1607.7 km/h 91 % 0.00 in /  0 mm 59 W/m2
13:00 47.0 °F /  8.3 °C 44.5 °F /  6.9 °C 30.62 in /  1036.8 hPa West 3.0 mph /  4.8 km/h 3.0 mph /  4.8 km/h 91 % 0.00 in /  0 mm 51 W/m2
13:01 47.0 °F /  8.3 °C 44.5 °F /  6.9 °C 30.62 in /  1036.8 hPa WNW 3.0 mph /  4.8 km/h -999.0 mph /  -1607.7 km/h 91 % 0.00 in /  0 mm 59 W/m2
13:05 47.1 °F /  8.4 °C 44.6 °F /  7 °C 30.62 in /  1036.8 hPa WNW 3.0 mph /  4.8 km/h 6.0 mph /  9.7 km/h 91 % 0.00 in /  0 mm 51 W/m2
13:06 47.0 °F /  8.3 °C 44.5 °F /  6.9 °C 30.62 in /  1036.8 hPa WNW 3.0 mph /  4.8 km/h -999.0 mph /  -1607.7 km/h 91 % 0.00 in /  0 mm 59 W/m2
13:10 47.1 °F /  8.4 °C 44.6 °F /  7 °C 30.62 in /  1036.8 hPa WNW 2.0 mph /  3.2 km/h 6.0 mph /  9.7 km/h 91 % 0.00 in /  0 mm 51 W/m2
13:11 47.1 °F /  8.4 °C 44.6 °F /  7 °C 30.62 in /  1036.8 hPa WNW 2.0 mph /  3.2 km/h -999.0 mph /  -1607.7 km/h 91 % 0.00 in /  0 mm 50 W/m2
13:15 47.2 °F /  8.4 °C 44.7 °F /  7.1 °C 30.62 in /  1036.8 hPa West 2.0 mph /  3.2 km/h 6.0 mph /  9.7 km/h 91 % 0.00 in /  0 mm 47 W/m2
13:16 47.1 °F /  8.4 °C 44.6 °F /  7 °C 30.62 in /  1036.8 hPa WNW 2.0 mph /  3.2 km/h -999.0 mph /  -1607.7 km/h 91 % 0.00 in /  0 mm 50 W/m2
13:20 47.2 °F /  8.4 °C 44.4 °F /  6.9 °C 30.62 in /  1036.8 hPa West 2.0 mph /  3.2 km/h 2.0 mph /  3.2 km/h 90 % 0.00 in /  0 mm 49 W/m2
13:21 47.1 °F /  8.4 °C 44.6 °F /  7 °C 30.62 in /  1036.8 hPa WNW 2.0 mph /  3.2 km/h -999.0 mph /  -1607.7 km/h 91 % 0.00 in /  0 mm 50 W/m2
13:25 47.2 °F /  8.4 °C 44.7 °F /  7.1 °C 30.62 in /  1036.8 hPa West 1.0 mph /  1.6 km/h 6.0 mph /  9.7 km/h 91 % 0.00 in /  0 mm 47 W/m2
13:26 47.2 °F /  8.4 °C 44.7 °F /  7.1 °C 30.62 in /  1036.8 hPa West 1.0 mph /  1.6 km/h -999.0 mph /  -1607.7 km/h 91 % 0.00 in /  0 mm 48 W/m2
13:30 47.3 °F /  8.5 °C 44.8 °F /  7.1 °C 30.62 in /  1036.8 hPa Calm   6.0 mph /  9.7 km/h 91 % 0.00 in /  0 mm 47 W/m2
13:31 47.2 °F /  8.4 °C 44.7 °F /  7.1 °C 30.62 in /  1036.8 hPa West 1.0 mph /  1.6 km/h -999.0 mph /  -1607.7 km/h 91 % 0.00 in /  0 mm 48 W/m2
13:35 47.3 °F /  8.5 °C 44.5 °F /  6.9 °C 30.62 in /  1036.8 hPa Calm   6.0 mph /  9.7 km/h 90 % 0.00 in /  0 mm 39 W/m2
13:36 47.2 °F /  8.4 °C 44.7 °F /  7.1 °C 30.62 in /  1036.8 hPa West 1.0 mph /  1.6 km/h -999.0 mph /  -1607.7 km/h 91 % 0.00 in /  0 mm 48 W/m2
13:41 47.3 °F /  8.5 °C 44.5 °F /  6.9 °C 30.62 in /  1036.8 hPa Calm   -999.0 mph /  -1607.7 km/h 90 % 0.00 in /  0 mm 40 W/m2
13:45 47.4 °F /  8.6 °C 44.6 °F /  7 °C 30.62 in /  1036.8 hPa Calm   6.0 mph /  9.7 km/h 90 % 0.00 in /  0 mm 39 W/m2
13:46 47.3 °F /  8.5 °C 44.5 °F /  6.9 °C 30.62 in /  1036.8 hPa Calm   -999.0 mph /  -1607.7 km/h 90 % 0.00 in /  0 mm 40 W/m2
13:50 47.3 °F /  8.5 °C 44.5 °F /  6.9 °C 30.62 in /  1036.8 hPa West 2.0 mph /  3.2 km/h 6.0 mph /  9.7 km/h 90 % 0.00 in /  0 mm 40 W/m2
13:51 47.3 °F /  8.5 °C 44.5 °F /  6.9 °C 30.62 in /  1036.8 hPa Calm   -999.0 mph /  -1607.7 km/h 90 % 0.00 in /  0 mm 40 W/m2
13:55 47.3 °F /  8.5 °C 44.5 °F /  6.9 °C 30.62 in /  1036.8 hPa West 2.0 mph /  3.2 km/h 6.0 mph /  9.7 km/h 90 % 0.00 in /  0 mm 46 W/m2
13:56 47.3 °F /  8.5 °C 44.2 °F /  6.8 °C 30.62 in /  1036.8 hPa West 3.0 mph /  4.8 km/h -999.0 mph /  -1607.7 km/h 89 % 0.00 in /  0 mm 42 W/m2
14:00 47.3 °F /  8.5 °C 44.2 °F /  6.8 °C 30.62 in /  1036.8 hPa WNW 3.0 mph /  4.8 km/h 6.0 mph /  9.7 km/h 89 % 0.00 in /  0 mm 42 W/m2
14:01 47.3 °F /  8.5 °C 44.2 °F /  6.8 °C 30.62 in /  1036.8 hPa West 3.0 mph /  4.8 km/h -999.0 mph /  -1607.7 km/h 89 % 0.00 in /  0 mm 42 W/m2
14:05 47.3 °F /  8.5 °C 43.9 °F /  6.6 °C 30.62 in /  1036.8 hPa WSW 5.0 mph /  8 km/h 6.0 mph /  9.7 km/h 88 % 0.00 in /  0 mm 33 W/m2
14:06 47.3 °F /  8.5 °C 44.2 °F /  6.8 °C 30.62 in /  1036.8 hPa West 3.0 mph /  4.8 km/h -999.0 mph /  -1607.7 km/h 89 % 0.00 in /  0 mm 42 W/m2
14:10 47.3 °F /  8.5 °C 43.9 °F /  6.6 °C 30.62 in /  1036.8 hPa WNW 5.0 mph /  8 km/h 5.0 mph /  8 km/h 88 % 0.00 in /  0 mm 32 W/m2
14:11 47.3 °F /  8.5 °C 43.9 °F /  6.6 °C 30.62 in /  1036.8 hPa WNW 5.0 mph /  8 km/h -999.0 mph /  -1607.7 km/h 88 % 0.00 in /  0 mm 33 W/m2
14:16 47.3 °F /  8.5 °C 43.9 °F /  6.6 °C 30.62 in /  1036.8 hPa WNW 5.0 mph /  8 km/h -999.0 mph /  -1607.7 km/h 88 % 0.00 in /  0 mm 33 W/m2
14:20 47.2 °F /  8.4 °C 43.8 °F /  6.6 °C 30.62 in /  1036.8 hPa WSW 6.0 mph /  9.7 km/h 6.0 mph /  9.7 km/h 88 % 0.00 in /  0 mm 25 W/m2
14:21 47.3 °F /  8.5 °C 43.9 °F /  6.6 °C 30.62 in /  1036.8 hPa WNW 5.0 mph /  8 km/h -999.0 mph /  -1607.7 km/h 88 % 0.00 in /  0 mm 33 W/m2
14:25 47.2 °F /  8.4 °C 43.8 °F /  6.6 °C 30.62 in /  1036.8 hPa West 6.0 mph /  9.7 km/h 8.0 mph /  12.9 km/h 88 % 0.00 in /  0 mm 23 W/m2
14:26 47.2 °F /  8.4 °C 43.8 °F /  6.6 °C 30.62 in /  1036.8 hPa West 6.0 mph /  9.7 km/h -999.0 mph /  -1607.7 km/h 88 % 0.00 in /  0 mm 24 W/m2
14:30 47.2 °F /  8.4 °C 43.8 °F /  6.6 °C 30.62 in /  1036.8 hPa West 6.0 mph /  9.7 km/h 9.0 mph /  14.5 km/h 88 % 0.00 in /  0 mm 23 W/m2
14:31 47.2 °F /  8.4 °C 43.8 °F /  6.6 °C 30.62 in /  1036.8 hPa West 6.0 mph /  9.7 km/h -999.0 mph /  -1607.7 km/h 88 % 0.00 in /  0 mm 24 W/m2
14:35 47.1 °F /  8.4 °C 43.7 °F /  6.5 °C 30.62 in /  1036.8 hPa WNW 6.0 mph /  9.7 km/h 9.0 mph /  14.5 km/h 88 % 0.00 in /  0 mm 23 W/m2
14:36 47.2 °F /  8.4 °C 43.8 °F /  6.6 °C 30.62 in /  1036.8 hPa West 6.0 mph /  9.7 km/h -999.0 mph /  -1607.7 km/h 88 % 0.00 in /  0 mm 24 W/m2
14:41 47.0 °F /  8.3 °C 43.6 °F /  6.4 °C 30.62 in /  1036.8 hPa WNW 6.0 mph /  9.7 km/h -999.0 mph /  -1607.7 km/h 88 % 0.00 in /  0 mm 27 W/m2
14:45 46.9 °F /  8.3 °C 43.5 °F /  6.4 °C 30.62 in /  1036.8 hPa West 6.0 mph /  9.7 km/h 7.0 mph /  11.3 km/h 88 % 0.00 in /  0 mm 30 W/m2
14:46 47.0 °F /  8.3 °C 43.6 °F /  6.4 °C 30.62 in /  1036.8 hPa WNW 6.0 mph /  9.7 km/h -999.0 mph /  -1607.7 km/h 88 % 0.00 in /  0 mm 27 W/m2
14:50 46.9 °F /  8.3 °C 43.8 °F /  6.6 °C 30.62 in /  1036.8 hPa WNW 7.0 mph /  11.3 km/h 7.0 mph /  11.3 km/h 89 % 0.00 in /  0 mm 25 W/m2
14:51 47.0 °F /  8.3 °C 43.6 °F /  6.4 °C 30.62 in /  1036.8 hPa WNW 6.0 mph /  9.7 km/h -999.0 mph /  -1607.7 km/h 88 % 0.00 in /  0 mm 27 W/m2
14:55 46.8 °F /  8.2 °C 43.7 °F /  6.5 °C 30.62 in /  1036.8 hPa WNW 5.0 mph /  8 km/h 7.0 mph /  11.3 km/h 89 % 0.00 in /  0 mm 23 W/m2
14:56 46.8 °F /  8.2 °C 43.7 °F /  6.5 °C 30.62 in /  1036.8 hPa WNW 3.0 mph /  4.8 km/h -999.0 mph /  -1607.7 km/h 89 % 0.00 in /  0 mm 23 W/m2
15:01 46.8 °F /  8.2 °C 43.7 °F /  6.5 °C 30.62 in /  1036.8 hPa WNW 3.0 mph /  4.8 km/h -999.0 mph /  -1607.7 km/h 89 % 0.00 in /  0 mm 23 W/m2
15:05 46.8 °F /  8.2 °C 43.7 °F /  6.5 °C 30.62 in /  1036.8 hPa WNW 1.0 mph /  1.6 km/h 6.0 mph /  9.7 km/h 89 % 0.00 in /  0 mm 18 W/m2
15:06 46.8 °F /  8.2 °C 43.7 °F /  6.5 °C 30.62 in /  1036.8 hPa WNW 3.0 mph /  4.8 km/h -999.0 mph /  -1607.7 km/h 89 % 0.00 in /  0 mm 23 W/m2
15:10 46.8 °F /  8.2 °C 44.0 °F /  6.7 °C 30.62 in /  1036.8 hPa Calm   6.0 mph /  9.7 km/h 90 % 0.00 in /  0 mm 16 W/m2
15:11 46.8 °F /  8.2 °C 44.0 °F /  6.7 °C 30.62 in /  1036.8 hPa Calm   -999.0 mph /  -1607.7 km/h 90 % 0.00 in /  0 mm 17 W/m2
15:15 46.8 °F /  8.2 °C 44.0 °F /  6.7 °C 30.62 in /  1036.8 hPa Calm   6.0 mph /  9.7 km/h 90 % 0.00 in /  0 mm 14 W/m2
15:16 46.8 °F /  8.2 °C 44.0 °F /  6.7 °C 30.62 in /  1036.8 hPa Calm   -999.0 mph /  -1607.7 km/h 90 % 0.00 in /  0 mm 17 W/m2
15:20 46.7 °F /  8.2 °C 43.9 °F /  6.6 °C 30.62 in /  1036.8 hPa Calm   6.0 mph /  9.7 km/h 90 % 0.00 in /  0 mm 12 W/m2
15:21 46.8 °F /  8.2 °C 44.0 °F /  6.7 °C 30.62 in /  1036.8 hPa Calm   -999.0 mph /  -1607.7 km/h 90 % 0.00 in /  0 mm 17 W/m2
15:26 46.7 °F /  8.2 °C 43.9 °F /  6.6 °C 30.62 in /  1036.8 hPa Calm   -999.0 mph /  -1607.7 km/h 90 % 0.00 in /  0 mm 12 W/m2
15:31 46.7 °F /  8.2 °C 43.9 °F /  6.6 °C 30.62 in /  1036.8 hPa Calm   -999.0 mph /  -1607.7 km/h 90 % 0.00 in /  0 mm 12 W/m2
15:36 46.7 °F /  8.2 °C 43.9 °F /  6.6 °C 30.62 in /  1036.8 hPa Calm   -999.0 mph /  -1607.7 km/h 90 % 0.00 in /  0 mm 12 W/m2
15:41 46.6 °F /  8.1 °C 43.8 °F /  6.6 °C 30.62 in /  1036.8 hPa Calm   -999.0 mph /  -1607.7 km/h 90 % 0.00 in /  0 mm 9 W/m2
15:46 46.6 °F /  8.1 °C 43.8 °F /  6.6 °C 30.62 in /  1036.8 hPa Calm   -999.0 mph /  -1607.7 km/h 90 % 0.00 in /  0 mm 9 W/m2
15:50 46.6 °F /  8.1 °C 44.1 °F /  6.7 °C 30.62 in /  1036.8 hPa Calm   6.0 mph /  9.7 km/h 91 % 0.00 in /  0 mm 5 W/m2
15:51 46.6 °F /  8.1 °C 43.8 °F /  6.6 °C 30.62 in /  1036.8 hPa Calm   -999.0 mph /  -1607.7 km/h 90 % 0.00 in /  0 mm 9 W/m2
15:55 46.5 °F /  8.1 °C 44.0 °F /  6.7 °C 30.62 in /  1036.8 hPa Calm   6.0 mph /  9.7 km/h 91 % 0.00 in /  0 mm 5 W/m2
15:56 46.5 °F /  8.1 °C 44.0 °F /  6.7 °C 30.62 in /  1036.8 hPa Calm   -999.0 mph /  -1607.7 km/h 91 % 0.00 in /  0 mm 4 W/m2
16:01 46.5 °F /  8.1 °C 44.0 °F /  6.7 °C 30.62 in /  1036.8 hPa Calm   -999.0 mph /  -1607.7 km/h 91 % 0.00 in /  0 mm 4 W/m2
16:06 46.5 °F /  8.1 °C 44.0 °F /  6.7 °C 30.62 in /  1036.8 hPa Calm   -999.0 mph /  -1607.7 km/h 91 % 0.00 in /  0 mm 4 W/m2
16:10 46.4 °F /  8 °C 43.9 °F /  6.6 °C 30.63 in /  1037.1 hPa Calm   6.0 mph /  9.7 km/h 91 % 0.00 in /  0 mm 0 W/m2
16:11 46.4 °F /  8 °C 43.9 °F /  6.6 °C 30.63 in /  1037.1 hPa Calm   -999.0 mph /  -1607.7 km/h 91 % 0.00 in /  0 mm 0 W/m2
16:15 46.3 °F /  7.9 °C 43.8 °F /  6.6 °C 30.63 in /  1037.1 hPa Calm   6.0 mph /  9.7 km/h 91 % 0.00 in /  0 mm 0 W/m2
16:16 46.4 °F /  8 °C 43.9 °F /  6.6 °C 30.63 in /  1037.1 hPa Calm   -999.0 mph /  -1607.7 km/h 91 % 0.00 in /  0 mm 0 W/m2
16:20 46.2 °F /  7.9 °C 43.7 °F /  6.5 °C 30.62 in /  1036.8 hPa NW 2.0 mph /  3.2 km/h 2.0 mph /  3.2 km/h 91 % 0.00 in /  0 mm 0 W/m2
16:21 46.4 °F /  8 °C 43.9 °F /  6.6 °C 30.63 in /  1037.1 hPa Calm   -999.0 mph /  -1607.7 km/h 91 % 0.00 in /  0 mm 0 W/m2
16:25 46.2 °F /  7.9 °C 43.7 °F /  6.5 °C 30.62 in /  1036.8 hPa West 2.0 mph /  3.2 km/h 5.0 mph /  8 km/h 91 % 0.00 in /  0 mm 0 W/m2
16:26 46.2 °F /  7.9 °C 43.7 °F /  6.5 °C 30.62 in /  1036.8 hPa WNW 2.0 mph /  3.2 km/h -999.0 mph /  -1607.7 km/h 91 % 0.00 in /  0 mm 0 W/m2
16:30 46.2 °F /  7.9 °C 43.7 °F /  6.5 °C 30.62 in /  1036.8 hPa NW 2.0 mph /  3.2 km/h 6.0 mph /  9.7 km/h 91 % 0.00 in /  0 mm 0 W/m2
16:31 46.2 °F /  7.9 °C 43.7 °F /  6.5 °C 30.62 in /  1036.8 hPa WNW 2.0 mph /  3.2 km/h -999.0 mph /  -1607.7 km/h 91 % 0.00 in /  0 mm 0 W/m2
16:35 46.3 °F /  7.9 °C 43.8 °F /  6.6 °C 30.63 in /  1037.1 hPa WNW 3.0 mph /  4.8 km/h 6.0 mph /  9.7 km/h 91 % 0.00 in /  0 mm 0 W/m2
16:36 46.2 °F /  7.9 °C 43.7 °F /  6.5 °C 30.62 in /  1036.8 hPa WNW 2.0 mph /  3.2 km/h -999.0 mph /  -1607.7 km/h 91 % 0.00 in /  0 mm 0 W/m2
16:41 46.3 °F /  7.9 °C 43.8 °F /  6.6 °C 30.63 in /  1037.1 hPa WNW 2.0 mph /  3.2 km/h -999.0 mph /  -1607.7 km/h 91 % 0.00 in /  0 mm 0 W/m2
16:45 46.3 °F /  7.9 °C 43.8 °F /  6.6 °C 30.63 in /  1037.1 hPa WNW 2.0 mph /  3.2 km/h 6.0 mph /  9.7 km/h 91 % 0.00 in /  0 mm 0 W/m2
16:46 46.3 °F /  7.9 °C 43.8 °F /  6.6 °C 30.63 in /  1037.1 hPa WNW 2.0 mph /  3.2 km/h -999.0 mph /  -1607.7 km/h 91 % 0.00 in /  0 mm 0 W/m2
16:50 46.3 °F /  7.9 °C 43.8 °F /  6.6 °C 30.63 in /  1037.1 hPa WNW 1.0 mph /  1.6 km/h 6.0 mph /  9.7 km/h 91 % 0.00 in /  0 mm 0 W/m2
16:51 46.3 °F /  7.9 °C 43.8 °F /  6.6 °C 30.63 in /  1037.1 hPa WNW 2.0 mph /  3.2 km/h -999.0 mph /  -1607.7 km/h 91 % 0.00 in /  0 mm 0 W/m2
16:55 46.3 °F /  7.9 °C 43.8 °F /  6.6 °C 30.63 in /  1037.1 hPa WNW 1.0 mph /  1.6 km/h 6.0 mph /  9.7 km/h 91 % 0.00 in /  0 mm 0 W/m2
16:56 46.3 °F /  7.9 °C 43.8 °F /  6.6 °C 30.63 in /  1037.1 hPa Calm   -999.0 mph /  -1607.7 km/h 91 % 0.00 in /  0 mm 0 W/m2
17:00 46.2 °F /  7.9 °C 43.7 °F /  6.5 °C 30.63 in /  1037.1 hPa Calm   6.0 mph /  9.7 km/h 91 % 0.00 in /  0 mm 0 W/m2
17:01 46.3 °F /  7.9 °C 43.8 °F /  6.6 °C 30.63 in /  1037.1 hPa Calm   -999.0 mph /  -1607.7 km/h 91 % 0.00 in /  0 mm 0 W/m2
17:05 46.2 °F /  7.9 °C 43.7 °F /  6.5 °C 30.63 in /  1037.1 hPa Calm   6.0 mph /  9.7 km/h 91 % 0.00 in /  0 mm 0 W/m2
17:06 46.3 °F /  7.9 °C 43.8 °F /  6.6 °C 30.63 in /  1037.1 hPa Calm   -999.0 mph /  -1607.7 km/h 91 % 0.00 in /  0 mm 0 W/m2
17:10 46.1 °F /  7.8 °C 43.6 °F /  6.4 °C 30.63 in /  1037.1 hPa Calm   6.0 mph /  9.7 km/h 91 % 0.00 in /  0 mm 0 W/m2
17:11 46.2 °F /  7.9 °C 43.7 °F /  6.5 °C 30.63 in /  1037.1 hPa Calm   -999.0 mph /  -1607.7 km/h 91 % 0.00 in /  0 mm 0 W/m2
17:15 46.1 °F /  7.8 °C 43.6 °F /  6.4 °C 30.63 in /  1037.1 hPa Calm   6.0 mph /  9.7 km/h 91 % 0.00 in /  0 mm 0 W/m2
17:16 46.2 °F /  7.9 °C 43.7 °F /  6.5 °C 30.63 in /  1037.1 hPa Calm   -999.0 mph /  -1607.7 km/h 91 % 0.00 in /  0 mm 0 W/m2
17:21 46.2 °F /  7.9 °C 43.7 °F /  6.5 °C 30.63 in /  1037.1 hPa Calm   -999.0 mph /  -1607.7 km/h 91 % 0.00 in /  0 mm 0 W/m2
17:25 46.1 °F /  7.8 °C 43.6 °F /  6.4 °C 30.63 in /  1037.1 hPa Calm   6.0 mph /  9.7 km/h 91 % 0.00 in /  0 mm 0 W/m2
17:26 46.1 °F /  7.8 °C 43.6 °F /  6.4 °C 30.63 in /  1037.1 hPa Calm   -999.0 mph /  -1607.7 km/h 91 % 0.00 in /  0 mm 0 W/m2
17:30 46.1 °F /  7.8 °C 43.6 °F /  6.4 °C 30.63 in /  1037.1 hPa Calm   6.0 mph /  9.7 km/h 91 % 0.00 in /  0 mm 0 W/m2
17:31 46.1 °F /  7.8 °C 43.6 °F /  6.4 °C 30.63 in /  1037.1 hPa Calm   -999.0 mph /  -1607.7 km/h 91 % 0.00 in /  0 mm 0 W/m2
17:35 46.1 °F /  7.8 °C 43.6 °F /  6.4 °C 30.63 in /  1037.1 hPa WNW 1.0 mph /  1.6 km/h 6.0 mph /  9.7 km/h 91 % 0.00 in /  0 mm 0 W/m2
17:36 46.1 °F /  7.8 °C 43.6 °F /  6.4 °C 30.63 in /  1037.1 hPa Calm   -999.0 mph /  -1607.7 km/h 91 % 0.00 in /  0 mm 0 W/m2
17:40 46.0 °F /  7.8 °C 43.5 °F /  6.4 °C 30.63 in /  1037.1 hPa WNW 1.0 mph /  1.6 km/h 6.0 mph /  9.7 km/h 91 % 0.00 in /  0 mm 0 W/m2
17:41 46.0 °F /  7.8 °C 43.8 °F /  6.6 °C 30.63 in /  1037.1 hPa WNW 1.0 mph /  1.6 km/h -999.0 mph /  -1607.7 km/h 92 % 0.00 in /  0 mm 0 W/m2
17:45 46.1 °F /  7.8 °C 43.9 °F /  6.6 °C 30.63 in /  1037.1 hPa WNW 1.0 mph /  1.6 km/h 6.0 mph /  9.7 km/h 92 % 0.00 in /  0 mm 0 W/m2
17:46 46.0 °F /  7.8 °C 43.8 °F /  6.6 °C 30.63 in /  1037.1 hPa WNW 1.0 mph /  1.6 km/h -999.0 mph /  -1607.7 km/h 92 % 0.00 in /  0 mm 0 W/m2
17:50 46.0 °F /  7.8 °C 43.8 °F /  6.6 °C 30.63 in /  1037.1 hPa WNW 2.0 mph /  3.2 km/h 6.0 mph /  9.7 km/h 92 % 0.00 in /  0 mm 0 W/m2
17:51 46.0 °F /  7.8 °C 43.8 °F /  6.6 °C 30.63 in /  1037.1 hPa WNW 1.0 mph /  1.6 km/h -999.0 mph /  -1607.7 km/h 92 % 0.00 in /  0 mm 0 W/m2
17:55 46.0 °F /  7.8 °C 43.8 °F /  6.6 °C 30.63 in /  1037.1 hPa WNW 3.0 mph /  4.8 km/h 6.0 mph /  9.7 km/h 92 % 0.00 in /  0 mm 0 W/m2
17:56 46.0 °F /  7.8 °C 43.8 °F /  6.6 °C 30.63 in /  1037.1 hPa WNW 2.0 mph /  3.2 km/h -999.0 mph /  -1607.7 km/h 92 % 0.00 in /  0 mm 0 W/m2
18:01 46.0 °F /  7.8 °C 43.8 °F /  6.6 °C 30.63 in /  1037.1 hPa WNW 2.0 mph /  3.2 km/h -999.0 mph /  -1607.7 km/h 92 % 0.00 in /  0 mm 0 W/m2
18:05 46.1 °F /  7.8 °C 43.9 °F /  6.6 °C 30.63 in /  1037.1 hPa Calm   6.0 mph /  9.7 km/h 92 % 0.00 in /  0 mm 0 W/m2
18:06 46.0 °F /  7.8 °C 43.8 °F /  6.6 °C 30.63 in /  1037.1 hPa WNW 2.0 mph /  3.2 km/h -999.0 mph /  -1607.7 km/h 92 % 0.00 in /  0 mm 0 W/m2
18:11 46.1 °F /  7.8 °C 43.9 °F /  6.6 °C 30.63 in /  1037.1 hPa Calm   -999.0 mph /  -1607.7 km/h 92 % 0.00 in /  0 mm 0 W/m2
18:15 46.0 °F /  7.8 °C 43.8 °F /  6.6 °C 30.63 in /  1037.1 hPa Calm   6.0 mph /  9.7 km/h 92 % 0.00 in /  0 mm 0 W/m2
18:16 46.1 °F /  7.8 °C 43.9 °F /  6.6 °C 30.63 in /  1037.1 hPa Calm   -999.0 mph /  -1607.7 km/h 92 % 0.00 in /  0 mm 0 W/m2
18:20 46.0 °F /  7.8 °C 43.8 °F /  6.6 °C 30.64 in /  1037.5 hPa Calm   6.0 mph /  9.7 km/h 92 % 0.00 in /  0 mm 0 W/m2
18:21 46.1 °F /  7.8 °C 43.9 °F /  6.6 °C 30.63 in /  1037.1 hPa Calm   -999.0 mph /  -1607.7 km/h 92 % 0.00 in /  0 mm 0 W/m2
18:25 46.0 °F /  7.8 °C 43.8 °F /  6.6 °C 30.64 in /  1037.5 hPa Calm   6.0 mph /  9.7 km/h 92 % 0.00 in /  0 mm 0 W/m2
18:26 46.0 °F /  7.8 °C 43.8 °F /  6.6 °C 30.63 in /  1037.1 hPa Calm   -999.0 mph /  -1607.7 km/h 92 % 0.00 in /  0 mm 0 W/m2
18:30 45.9 °F /  7.7 °C 43.7 °F /  6.5 °C 30.63 in /  1037.1 hPa Calm   6.0 mph /  9.7 km/h 92 % 0.00 in /  0 mm 0 W/m2
18:31 46.0 °F /  7.8 °C 43.8 °F /  6.6 °C 30.63 in /  1037.1 hPa Calm   -999.0 mph /  -1607.7 km/h 92 % 0.00 in /  0 mm 0 W/m2
18:35 45.9 °F /  7.7 °C 43.7 °F /  6.5 °C 30.63 in /  1037.1 hPa Calm   6.0 mph /  9.7 km/h 92 % 0.00 in /  0 mm 0 W/m2
18:36 46.0 °F /  7.8 °C 43.8 °F /  6.6 °C 30.63 in /  1037.1 hPa Calm   -999.0 mph /  -1607.7 km/h 92 % 0.00 in /  0 mm 0 W/m2
18:41 45.9 °F /  7.7 °C 43.7 °F /  6.5 °C 30.64 in /  1037.5 hPa Calm   -999.0 mph /  -1607.7 km/h 92 % 0.00 in /  0 mm 0 W/m2
18:45 45.9 °F /  7.7 °C 43.7 °F /  6.5 °C 30.63 in /  1037.1 hPa Calm   6.0 mph /  9.7 km/h 92 % 0.00 in /  0 mm 0 W/m2
18:46 45.9 °F /  7.7 °C 43.7 °F /  6.5 °C 30.64 in /  1037.5 hPa Calm   -999.0 mph /  -1607.7 km/h 92 % 0.00 in /  0 mm 0 W/m2
18:50 45.8 °F /  7.7 °C 43.6 °F /  6.4 °C 30.64 in /  1037.5 hPa Calm   6.0 mph /  9.7 km/h 92 % 0.00 in /  0 mm 0 W/m2
18:51 45.9 °F /  7.7 °C 43.7 °F /  6.5 °C 30.64 in /  1037.5 hPa Calm   -999.0 mph /  -1607.7 km/h 92 % 0.00 in /  0 mm 0 W/m2
18:55 45.8 °F /  7.7 °C 43.6 °F /  6.4 °C 30.64 in /  1037.5 hPa Calm   6.0 mph /  9.7 km/h 92 % 0.00 in /  0 mm 0 W/m2
18:56 45.8 °F /  7.7 °C 43.6 °F /  6.4 °C 30.64 in /  1037.5 hPa WNW 1.0 mph /  1.6 km/h -999.0 mph /  -1607.7 km/h 92 % 0.00 in /  0 mm 0 W/m2
19:00 45.8 °F /  7.7 °C 43.6 °F /  6.4 °C 30.64 in /  1037.5 hPa WNW 1.0 mph /  1.6 km/h 1.0 mph /  1.6 km/h 92 % 0.00 in /  0 mm 0 W/m2
19:01 45.8 °F /  7.7 °C 43.6 °F /  6.4 °C 30.64 in /  1037.5 hPa WNW 1.0 mph /  1.6 km/h -999.0 mph /  -1607.7 km/h 92 % 0.00 in /  0 mm 0 W/m2
19:05 45.8 °F /  7.7 °C 43.6 °F /  6.4 °C 30.64 in /  1037.5 hPa WNW 1.0 mph /  1.6 km/h 6.0 mph /  9.7 km/h 92 % 0.00 in /  0 mm 0 W/m2
19:06 45.8 °F /  7.7 °C 43.6 °F /  6.4 °C 30.64 in /  1037.5 hPa WNW 1.0 mph /  1.6 km/h -999.0 mph /  -1607.7 km/h 92 % 0.00 in /  0 mm 0 W/m2
19:10 45.7 °F /  7.6 °C 43.5 °F /  6.4 °C 30.64 in /  1037.5 hPa Calm   6.0 mph /  9.7 km/h 92 % 0.00 in /  0 mm 0 W/m2
19:11 45.7 °F /  7.6 °C 43.8 °F /  6.6 °C 30.64 in /  1037.5 hPa Calm   -999.0 mph /  -1607.7 km/h 93 % 0.00 in /  0 mm 0 W/m2
19:16 45.7 °F /  7.6 °C 43.8 °F /  6.6 °C 30.64 in /  1037.5 hPa Calm   -999.0 mph /  -1607.7 km/h 93 % 0.00 in /  0 mm 0 W/m2
19:20 45.7 °F /  7.6 °C 43.8 °F /  6.6 °C 30.64 in /  1037.5 hPa WNW 1.0 mph /  1.6 km/h 1.0 mph /  1.6 km/h 93 % 0.00 in /  0 mm 0 W/m2
19:21 45.7 °F /  7.6 °C 43.8 °F /  6.6 °C 30.64 in /  1037.5 hPa Calm   -999.0 mph /  -1607.7 km/h 93 % 0.00 in /  0 mm 0 W/m2
19:25 45.6 °F /  7.6 °C 43.7 °F /  6.5 °C 30.64 in /  1037.5 hPa Calm   6.0 mph /  9.7 km/h 93 % 0.00 in /  0 mm 0 W/m2
19:26 45.6 °F /  7.6 °C 43.7 °F /  6.5 °C 30.64 in /  1037.5 hPa Calm   -999.0 mph /  -1607.7 km/h 93 % 0.00 in /  0 mm 0 W/m2
19:30 45.6 °F /  7.6 °C 43.7 °F /  6.5 °C 30.64 in /  1037.5 hPa Calm   6.0 mph /  9.7 km/h 93 % 0.00 in /  0 mm 0 W/m2
19:31 45.6 °F /  7.6 °C 43.7 °F /  6.5 °C 30.64 in /  1037.5 hPa Calm   -999.0 mph /  -1607.7 km/h 93 % 0.00 in /  0 mm 0 W/m2
19:35 45.6 °F /  7.6 °C 43.7 °F /  6.5 °C 30.63 in /  1037.1 hPa Calm   6.0 mph /  9.7 km/h 93 % 0.00 in /  0 mm 0 W/m2
19:36 45.6 °F /  7.6 °C 43.7 °F /  6.5 °C 30.64 in /  1037.5 hPa Calm   -999.0 mph /  -1607.7 km/h 93 % 0.00 in /  0 mm 0 W/m2
19:40 45.5 °F /  7.5 °C 43.6 °F /  6.4 °C 30.63 in /  1037.1 hPa Calm   6.0 mph /  9.7 km/h 93 % 0.00 in /  0 mm 0 W/m2
19:41 45.5 °F /  7.5 °C 43.6 °F /  6.4 °C 30.63 in /  1037.1 hPa Calm   -999.0 mph /  -1607.7 km/h 93 % 0.00 in /  0 mm 0 W/m2
19:45 45.5 °F /  7.5 °C 43.6 °F /  6.4 °C 30.63 in /  1037.1 hPa Calm   6.0 mph /  9.7 km/h 93 % 0.00 in /  0 mm 0 W/m2
19:46 45.5 °F /  7.5 °C 43.6 °F /  6.4 °C 30.63 in /  1037.1 hPa Calm   -999.0 mph /  -1607.7 km/h 93 % 0.00 in /  0 mm 0 W/m2
19:51 45.5 °F /  7.5 °C 43.6 °F /  6.4 °C 30.63 in /  1037.1 hPa Calm   -999.0 mph /  -1607.7 km/h 93 % 0.00 in /  0 mm 0 W/m2
19:55 45.5 °F /  7.5 °C 43.6 °F /  6.4 °C 30.63 in /  1037.1 hPa Calm   6.0 mph /  9.7 km/h 93 % 0.00 in /  0 mm 0 W/m2
19:56 45.5 °F /  7.5 °C 43.9 °F /  6.6 °C 30.63 in /  1037.1 hPa Calm   -999.0 mph /  -1607.7 km/h 94 % 0.00 in /  0 mm 0 W/m2
20:01 45.5 °F /  7.5 °C 43.9 °F /  6.6 °C 30.63 in /  1037.1 hPa Calm   -999.0 mph /  -1607.7 km/h 94 % 0.00 in /  0 mm 0 W/m2
20:05 45.5 °F /  7.5 °C 43.9 °F /  6.6 °C 30.63 in /  1037.1 hPa Calm   6.0 mph /  9.7 km/h 94 % 0.00 in /  0 mm 0 W/m2
20:06 45.5 °F /  7.5 °C 43.9 °F /  6.6 °C 30.63 in /  1037.1 hPa Calm   -999.0 mph /  -1607.7 km/h 94 % 0.00 in /  0 mm 0 W/m2
20:10 45.5 °F /  7.5 °C 43.9 °F /  6.6 °C 30.63 in /  1037.1 hPa Calm   6.0 mph /  9.7 km/h 94 % 0.00 in /  0 mm 0 W/m2
20:11 45.5 °F /  7.5 °C 43.9 °F /  6.6 °C 30.63 in /  1037.1 hPa Calm   -999.0 mph /  -1607.7 km/h 94 % 0.00 in /  0 mm 0 W/m2
20:15 45.4 °F /  7.4 °C 43.8 °F /  6.6 °C 30.63 in /  1037.1 hPa Calm   6.0 mph /  9.7 km/h 94 % 0.00 in /  0 mm 0 W/m2
20:16 45.5 °F /  7.5 °C 43.9 °F /  6.6 °C 30.63 in /  1037.1 hPa Calm   -999.0 mph /  -1607.7 km/h 94 % 0.00 in /  0 mm 0 W/m2
20:20 45.4 °F /  7.4 °C 43.8 °F /  6.6 °C 30.63 in /  1037.1 hPa Calm   6.0 mph /  9.7 km/h 94 % 0.00 in /  0 mm 0 W/m2
20:21 45.5 °F /  7.5 °C 43.9 °F /  6.6 °C 30.63 in /  1037.1 hPa Calm   -999.0 mph /  -1607.7 km/h 94 % 0.00 in /  0 mm 0 W/m2
20:25 45.3 °F /  7.4 °C 43.7 °F /  6.5 °C 30.63 in /  1037.1 hPa Calm   6.0 mph /  9.7 km/h 94 % 0.00 in /  0 mm 0 W/m2
20:26 45.3 °F /  7.4 °C 43.7 °F /  6.5 °C 30.63 in /  1037.1 hPa Calm   -999.0 mph /  -1607.7 km/h 94 % 0.00 in /  0 mm 0 W/m2
20:30 45.3 °F /  7.4 °C 43.7 °F /  6.5 °C 30.63 in /  1037.1 hPa Calm   6.0 mph /  9.7 km/h 94 % 0.00 in /  0 mm 0 W/m2
20:31 45.3 °F /  7.4 °C 43.7 °F /  6.5 °C 30.63 in /  1037.1 hPa Calm   -999.0 mph /  -1607.7 km/h 94 % 0.00 in /  0 mm 0 W/m2
20:36 45.3 °F /  7.4 °C 43.7 °F /  6.5 °C 30.63 in /  1037.1 hPa Calm   -999.0 mph /  -1607.7 km/h 94 % 0.00 in /  0 mm 0 W/m2
20:40 45.2 °F /  7.3 °C 43.6 °F /  6.4 °C 30.63 in /  1037.1 hPa Calm   6.0 mph /  9.7 km/h 94 % 0.00 in /  0 mm 0 W/m2
20:41 45.2 °F /  7.3 °C 43.6 °F /  6.4 °C 30.63 in /  1037.1 hPa Calm   -999.0 mph /  -1607.7 km/h 94 % 0.00 in /  0 mm 0 W/m2
20:45 45.2 °F /  7.3 °C 43.6 °F /  6.4 °C 30.63 in /  1037.1 hPa Calm   6.0 mph /  9.7 km/h 94 % 0.00 in /  0 mm 0 W/m2
20:46 45.2 °F /  7.3 °C 43.6 °F /  6.4 °C 30.63 in /  1037.1 hPa Calm   -999.0 mph /  -1607.7 km/h 94 % 0.00 in /  0 mm 0 W/m2
20:50 45.2 °F /  7.3 °C 43.6 °F /  6.4 °C 30.63 in /  1037.1 hPa Calm   6.0 mph /  9.7 km/h 94 % 0.00 in /  0 mm 0 W/m2
20:51 45.2 °F /  7.3 °C 43.6 °F /  6.4 °C 30.63 in /  1037.1 hPa Calm   -999.0 mph /  -1607.7 km/h 94 % 0.00 in /  0 mm 0 W/m2
20:55 45.2 °F /  7.3 °C 43.6 °F /  6.4 °C 30.63 in /  1037.1 hPa Calm   6.0 mph /  9.7 km/h 94 % 0.00 in /  0 mm 0 W/m2
20:56 45.2 °F /  7.3 °C 43.6 °F /  6.4 °C 30.63 in /  1037.1 hPa Calm   -999.0 mph /  -1607.7 km/h 94 % 0.00 in /  0 mm 0 W/m2
21:00 45.1 °F /  7.3 °C 43.5 °F /  6.4 °C 30.63 in /  1037.1 hPa Calm   6.0 mph /  9.7 km/h 94 % 0.00 in /  0 mm 0 W/m2
21:01 45.2 °F /  7.3 °C 43.6 °F /  6.4 °C 30.63 in /  1037.1 hPa Calm   -999.0 mph /  -1607.7 km/h 94 % 0.00 in /  0 mm 0 W/m2
21:06 45.2 °F /  7.3 °C 43.6 °F /  6.4 °C 30.63 in /  1037.1 hPa Calm   -999.0 mph /  -1607.7 km/h 94 % 0.00 in /  0 mm 0 W/m2
21:10 45.2 °F /  7.3 °C 43.6 °F /  6.4 °C 30.63 in /  1037.1 hPa Calm   6.0 mph /  9.7 km/h 94 % 0.00 in /  0 mm 0 W/m2
21:11 45.1 °F /  7.3 °C 43.5 °F /  6.4 °C 30.63 in /  1037.1 hPa Calm   -999.0 mph /  -1607.7 km/h 94 % 0.00 in /  0 mm 0 W/m2
21:15 45.2 °F /  7.3 °C 43.6 °F /  6.4 °C 30.63 in /  1037.1 hPa Calm   6.0 mph /  9.7 km/h 94 % 0.00 in /  0 mm 0 W/m2
21:16 45.1 °F /  7.3 °C 43.5 °F /  6.4 °C 30.63 in /  1037.1 hPa Calm   -999.0 mph /  -1607.7 km/h 94 % 0.00 in /  0 mm 0 W/m2
21:20 45.1 °F /  7.3 °C 43.5 °F /  6.4 °C 30.63 in /  1037.1 hPa NNW 1.0 mph /  1.6 km/h 6.0 mph /  9.7 km/h 94 % 0.00 in /  0 mm 0 W/m2
21:21 45.1 °F /  7.3 °C 43.5 °F /  6.4 °C 30.63 in /  1037.1 hPa Calm   -999.0 mph /  -1607.7 km/h 94 % 0.00 in /  0 mm 0 W/m2
21:25 45.1 °F /  7.3 °C 43.5 °F /  6.4 °C 30.63 in /  1037.1 hPa NNW 2.0 mph /  3.2 km/h 6.0 mph /  9.7 km/h 94 % 0.00 in /  0 mm 0 W/m2
21:26 45.1 °F /  7.3 °C 43.5 °F /  6.4 °C 30.63 in /  1037.1 hPa NNW 1.0 mph /  1.6 km/h -999.0 mph /  -1607.7 km/h 94 % 0.00 in /  0 mm 0 W/m2
21:30 45.1 °F /  7.3 °C 43.5 °F /  6.4 °C 30.63 in /  1037.1 hPa NNW 1.0 mph /  1.6 km/h 1.0 mph /  1.6 km/h 94 % 0.00 in /  0 mm 0 W/m2
21:31 45.1 °F /  7.3 °C 43.5 °F /  6.4 °C 30.63 in /  1037.1 hPa NNW 1.0 mph /  1.6 km/h -999.0 mph /  -1607.7 km/h 94 % 0.00 in /  0 mm 0 W/m2
21:35 45.2 °F /  7.3 °C 43.6 °F /  6.4 °C 30.63 in /  1037.1 hPa NNW 1.0 mph /  1.6 km/h 6.0 mph /  9.7 km/h 94 % 0.00 in /  0 mm 0 W/m2
21:36 45.1 °F /  7.3 °C 43.5 °F /  6.4 °C 30.63 in /  1037.1 hPa NNW 1.0 mph /  1.6 km/h -999.0 mph /  -1607.7 km/h 94 % 0.00 in /  0 mm 0 W/m2
21:40 45.2 °F /  7.3 °C 43.6 °F /  6.4 °C 30.63 in /  1037.1 hPa NNW 1.0 mph /  1.6 km/h 6.0 mph /  9.7 km/h 94 % 0.00 in /  0 mm 0 W/m2
21:41 45.2 °F /  7.3 °C 43.6 °F /  6.4 °C 30.63 in /  1037.1 hPa NNW 1.0 mph /  1.6 km/h -999.0 mph /  -1607.7 km/h 94 % 0.00 in /  0 mm 0 W/m2
21:45 45.2 °F /  7.3 °C 43.6 °F /  6.4 °C 30.63 in /  1037.1 hPa NNW 1.0 mph /  1.6 km/h 6.0 mph /  9.7 km/h 94 % 0.00 in /  0 mm 0 W/m2
21:46 45.2 °F /  7.3 °C 43.6 °F /  6.4 °C 30.63 in /  1037.1 hPa NNW 1.0 mph /  1.6 km/h -999.0 mph /  -1607.7 km/h 94 % 0.00 in /  0 mm 0 W/m2
21:51 45.2 °F /  7.3 °C 43.6 °F /  6.4 °C 30.63 in /  1037.1 hPa NNW 1.0 mph /  1.6 km/h -999.0 mph /  -1607.7 km/h 94 % 0.00 in /  0 mm 0 W/m2
21:55 45.2 °F /  7.3 °C 43.6 °F /  6.4 °C 30.63 in /  1037.1 hPa NNW 1.0 mph /  1.6 km/h 6.0 mph /  9.7 km/h 94 % 0.00 in /  0 mm 0 W/m2
21:56 45.2 °F /  7.3 °C 43.6 °F /  6.4 °C 30.63 in /  1037.1 hPa Calm   -999.0 mph /  -1607.7 km/h 94 % 0.00 in /  0 mm 0 W/m2
22:00 45.2 °F /  7.3 °C 43.6 °F /  6.4 °C 30.63 in /  1037.1 hPa Calm   6.0 mph /  9.7 km/h 94 % 0.00 in /  0 mm 0 W/m2
22:01 45.2 °F /  7.3 °C 43.6 °F /  6.4 °C 30.63 in /  1037.1 hPa Calm   -999.0 mph /  -1607.7 km/h 94 % 0.00 in /  0 mm 0 W/m2
22:05 45.2 °F /  7.3 °C 43.6 °F /  6.4 °C 30.63 in /  1037.1 hPa Calm   6.0 mph /  9.7 km/h 94 % 0.00 in /  0 mm 0 W/m2
22:06 45.2 °F /  7.3 °C 43.6 °F /  6.4 °C 30.63 in /  1037.1 hPa Calm   -999.0 mph /  -1607.7 km/h 94 % 0.00 in /  0 mm 0 W/m2
22:10 45.2 °F /  7.3 °C 43.6 °F /  6.4 °C 30.63 in /  1037.1 hPa Calm   6.0 mph /  9.7 km/h 94 % 0.00 in /  0 mm 0 W/m2
22:11 45.2 °F /  7.3 °C 43.6 °F /  6.4 °C 30.63 in /  1037.1 hPa Calm   -999.0 mph /  -1607.7 km/h 94 % 0.00 in /  0 mm 0 W/m2
22:15 45.2 °F /  7.3 °C 43.6 °F /  6.4 °C 30.63 in /  1037.1 hPa Calm   6.0 mph /  9.7 km/h 94 % 0.00 in /  0 mm 0 W/m2
22:16 45.2 °F /  7.3 °C 43.6 °F /  6.4 °C 30.63 in /  1037.1 hPa Calm   -999.0 mph /  -1607.7 km/h 94 % 0.00 in /  0 mm 0 W/m2
22:20 45.3 °F /  7.4 °C 43.7 °F /  6.5 °C 30.63 in /  1037.1 hPa Calm   6.0 mph /  9.7 km/h 94 % 0.00 in /  0 mm 0 W/m2
22:21 45.2 °F /  7.3 °C 43.6 °F /  6.4 °C 30.63 in /  1037.1 hPa Calm   -999.0 mph /  -1607.7 km/h 94 % 0.00 in /  0 mm 0 W/m2
22:26 45.2 °F /  7.3 °C 43.6 °F /  6.4 °C 30.63 in /  1037.1 hPa Calm   -999.0 mph /  -1607.7 km/h 94 % 0.00 in /  0 mm 0 W/m2
22:30 45.2 °F /  7.3 °C 43.6 °F /  6.4 °C 30.63 in /  1037.1 hPa Calm   6.0 mph /  9.7 km/h 94 % 0.00 in /  0 mm 0 W/m2
22:31 45.2 °F /  7.3 °C 43.6 °F /  6.4 °C 30.63 in /  1037.1 hPa Calm   -999.0 mph /  -1607.7 km/h 94 % 0.00 in /  0 mm 0 W/m2
22:35 45.2 °F /  7.3 °C 43.6 °F /  6.4 °C 30.63 in /  1037.1 hPa West 1.0 mph /  1.6 km/h 6.0 mph /  9.7 km/h 94 % 0.00 in /  0 mm 0 W/m2
22:36 45.2 °F /  7.3 °C 43.6 °F /  6.4 °C 30.63 in /  1037.1 hPa Calm   -999.0 mph /  -1607.7 km/h 94 % 0.00 in /  0 mm 0 W/m2
22:40 45.2 °F /  7.3 °C 43.6 °F /  6.4 °C 30.63 in /  1037.1 hPa West 2.0 mph /  3.2 km/h 6.0 mph /  9.7 km/h 94 % 0.00 in /  0 mm 0 W/m2
22:41 45.2 °F /  7.3 °C 43.6 °F /  6.4 °C 30.63 in /  1037.1 hPa West 1.0 mph /  1.6 km/h -999.0 mph /  -1607.7 km/h 94 % 0.00 in /  0 mm 0 W/m2
22:45 45.3 °F /  7.4 °C 43.7 °F /  6.5 °C 30.63 in /  1037.1 hPa West 1.0 mph /  1.6 km/h 6.0 mph /  9.7 km/h 94 % 0.00 in /  0 mm 0 W/m2
22:46 45.2 °F /  7.3 °C 43.6 °F /  6.4 °C 30.63 in /  1037.1 hPa West 1.0 mph /  1.6 km/h -999.0 mph /  -1607.7 km/h 94 % 0.00 in /  0 mm 0 W/m2
22:51 45.2 °F /  7.3 °C 43.6 °F /  6.4 °C 30.63 in /  1037.1 hPa West 1.0 mph /  1.6 km/h -999.0 mph /  -1607.7 km/h 94 % 0.00 in /  0 mm 0 W/m2
22:55 45.2 °F /  7.3 °C 43.3 °F /  6.3 °C 30.63 in /  1037.1 hPa Calm   6.0 mph /  9.7 km/h 93 % 0.00 in /  0 mm 0 W/m2
22:56 45.3 °F /  7.4 °C 43.7 °F /  6.5 °C 30.63 in /  1037.1 hPa Calm   -999.0 mph /  -1607.7 km/h 94 % 0.00 in /  0 mm 0 W/m2
23:00 45.2 °F /  7.3 °C 43.6 °F /  6.4 °C 30.63 in /  1037.1 hPa West 1.0 mph /  1.6 km/h 1.0 mph /  1.6 km/h 94 % 0.00 in /  0 mm 0 W/m2
23:01 45.3 °F /  7.4 °C 43.7 °F /  6.5 °C 30.63 in /  1037.1 hPa Calm   -999.0 mph /  -1607.7 km/h 94 % 0.00 in /  0 mm 0 W/m2
23:06 45.3 °F /  7.4 °C 43.7 °F /  6.5 °C 30.63 in /  1037.1 hPa Calm   -999.0 mph /  -1607.7 km/h 94 % 0.00 in /  0 mm 0 W/m2
23:10 45.2 °F /  7.3 °C 43.6 °F /  6.4 °C 30.63 in /  1037.1 hPa Calm   6.0 mph /  9.7 km/h 94 % 0.00 in /  0 mm 0 W/m2
23:11 45.2 °F /  7.3 °C 43.3 °F /  6.3 °C 30.63 in /  1037.1 hPa Calm   -999.0 mph /  -1607.7 km/h 93 % 0.00 in /  0 mm 0 W/m2
23:15 45.3 °F /  7.4 °C 43.7 °F /  6.5 °C 30.63 in /  1037.1 hPa West 1.0 mph /  1.6 km/h 6.0 mph /  9.7 km/h 94 % 0.00 in /  0 mm 0 W/m2
23:16 45.2 °F /  7.3 °C 43.3 °F /  6.3 °C 30.63 in /  1037.1 hPa Calm   -999.0 mph /  -1607.7 km/h 93 % 0.00 in /  0 mm 0 W/m2
23:20 45.3 °F /  7.4 °C 43.4 °F /  6.3 °C 30.63 in /  1037.1 hPa WNW 2.0 mph /  3.2 km/h 6.0 mph /  9.7 km/h 93 % 0.00 in /  0 mm 0 W/m2
23:21 45.2 °F /  7.3 °C 43.3 °F /  6.3 °C 30.63 in /  1037.1 hPa Calm   -999.0 mph /  -1607.7 km/h 93 % 0.00 in /  0 mm 0 W/m2
23:26 45.3 °F /  7.4 °C 43.4 °F /  6.3 °C 30.64 in /  1037.5 hPa WNW 5.0 mph /  8 km/h -999.0 mph /  -1607.7 km/h 93 % 0.00 in /  0 mm 0 W/m2
23:30 45.3 °F /  7.4 °C 43.4 °F /  6.3 °C 30.63 in /  1037.1 hPa WNW 5.0 mph /  8 km/h 6.0 mph /  9.7 km/h 93 % 0.00 in /  0 mm 0 W/m2
23:31 45.3 °F /  7.4 °C 43.4 °F /  6.3 °C 30.64 in /  1037.5 hPa WNW 5.0 mph /  8 km/h -999.0 mph /  -1607.7 km/h 93 % 0.00 in /  0 mm 0 W/m2
23:35 45.3 °F /  7.4 °C 43.1 °F /  6.2 °C 30.64 in /  1037.5 hPa WNW 5.0 mph /  8 km/h 8.0 mph /  12.9 km/h 92 % 0.00 in /  0 mm 0 W/m2
23:36 45.3 °F /  7.4 °C 43.4 °F /  6.3 °C 30.64 in /  1037.5 hPa WNW 5.0 mph /  8 km/h -999.0 mph /  -1607.7 km/h 93 % 0.00 in /  0 mm 0 W/m2
23:40 45.3 °F /  7.4 °C 43.1 °F /  6.2 °C 30.63 in /  1037.1 hPa NW 6.0 mph /  9.7 km/h 6.0 mph /  9.7 km/h 92 % 0.00 in /  0 mm 0 W/m2
23:41 45.3 °F /  7.4 °C 43.1 °F /  6.2 °C 30.63 in /  1037.1 hPa WNW 5.0 mph /  8 km/h -999.0 mph /  -1607.7 km/h 92 % 0.00 in /  0 mm 0 W/m2
23:45 45.3 °F /  7.4 °C 43.1 °F /  6.2 °C 30.63 in /  1037.1 hPa NNW 5.0 mph /  8 km/h 7.0 mph /  11.3 km/h 92 % 0.00 in /  0 mm 0 W/m2
23:46 45.3 °F /  7.4 °C 43.1 °F /  6.2 °C 30.63 in /  1037.1 hPa WNW 5.0 mph /  8 km/h -999.0 mph /  -1607.7 km/h 92 % 0.00 in /  0 mm 0 W/m2
23:50 45.3 °F /  7.4 °C 42.8 °F /  6 °C 30.63 in /  1037.1 hPa NW 6.0 mph /  9.7 km/h 6.0 mph /  9.7 km/h 91 % 0.00 in /  0 mm 0 W/m2
23:51 45.3 °F /  7.4 °C 43.1 °F /  6.2 °C 30.63 in /  1037.1 hPa WNW 5.0 mph /  8 km/h -999.0 mph /  -1607.7 km/h 92 % 0.00 in /  0 mm 0 W/m2
23:56 45.3 °F /  7.4 °C 42.8 °F /  6 °C 30.63 in /  1037.1 hPa WNW 4.0 mph /  6.4 km/h -999.0 mph /  -1607.7 km/h 91 % 0.00 in /  0 mm 0 W/m2
Delerius-Weather
Compliments of Weather Underground - 3.75 mb

Data updates at regular intervals.